顯示廣告
隱藏 ✕
※ 本文為 MindOcean 轉寄自 ptt.cc 更新時間: 2020-09-06 20:53:13
看板 Gossiping
作者 ex250203 (我是肥宅我驕傲)
標題
 [新聞] 「故宮寶物收入應歸國民黨」 黨代表:泱

時間 Sun Sep  6 16:23:58 2020


ETtoday

記者羅婉庭/台北報導

「故宮寶物收入應歸國民黨」 黨代表:泱泱大黨被掐脖子成笑話

國民黨6日召開全國黨代表大會,黨代表陳麗旭發表陳詞,直言「一個早上開會到現在,
開會很辛酸,國民黨怎麼了?」過去泱泱大黨現在被掐著脖子,是全世界最大笑話,撿槍
都不會。此外,她提議,團結抗爭把故宮門票收入歸給國民黨,黨就有收入來源。


陳麗旭表示,國民黨在野了卻像執政黨,執政黨已經執政了還把自己當在野黨;國民黨現
在最大悲哀的是,黨產會凍結黨產,理由是黨產不清不楚所以要凍結,那可不可以請中央
硬起來,學學民進黨在野的樣子,「讓我們好好野一下」。


她強調,如果現在的錢是不當黨產所以扣住了,那國民黨當初帶來的黃金可以先擱置不提
,但故宮博物院裡的國寶不是台灣的,「是國民黨帶來的!」



https://i.imgur.com/l3n0smS.jpg
[圖]
▲黨代表陳麗旭發言。(圖/記者李毓康攝)

陳麗旭接著說,沒有爭議性的東西,就請中央站出來,帶領大家好好野一番,把故宮博物
院寶物要回來,只要抗爭把故宮門票收入歸給國民黨,黨就有收入來源,「就讓我們好好
野一野!」


陳麗旭呼籲,黨員團結起來救救自己,這些話是肺腑之言,不是中央愛聽的,請不要把大
家當怪物;有難可以一起扛,但中央不要讓大家連扛的力氣都沒有,中央要站出來帶領大
家上街頭,讓民進黨看看什麼叫做在野黨。她發言完畢後,全場鼓掌喊聲呼應。


https://i.imgur.com/RSGrt7U.jpg
[圖]
▲國民黨全代會,歷任黨主席同台。(圖/記者李毓康攝)

https://reurl.cc/1425l9
「故宮寶物收入應歸國民黨」 黨代表:泱泱大黨被掐脖子成笑話 | ETtoday政治新聞 | ETtoday新聞雲
[圖]
國民黨6日召開全國黨代表大會,黨代表陳麗旭發表陳詞,直言「一個早上開會到現在,開會很辛酸,國民黨怎麼了?」過去泱泱大黨現在被掐著脖子,是全世界最大笑話,撿槍都不會。此外,她提議,團結抗爭把故宮門票收入歸給國民黨,黨就有收入來源。 (全代會,國民黨) ...

 

備註:厲害了 你的黨

--
--
※ 發信站: 批踢踢實業坊(ptt.cc), 來自: 123.193.180.40 (臺灣)
※ 文章代碼(AID): #1VL9oWf- (Gossiping)
※ 文章網址: https://www.ptt.cc/bbs/Gossiping/M.1599380640.A.A7E.html
a240daniel: 你國民黨還是滾出台灣吧1F 09/06 16:24
※ 編輯: ex250203 (123.193.180.40 臺灣), 09/06/2020 16:25:07
thegreatlcx 
thegreatlcx: 國冥黨一堆智障再蹲個12年吧2F 09/06 16:25
poggssi: 真的,也不想想當初故宮文物是誰帶來的,一點都不懂感激3F 09/06 16:25
kinve1014: 整個黨都是智障 綠共繼續爽贏了4F 09/06 16:25
chadmu: 國家的財產怎麼可能歸黨所有5F 09/06 16:25
lohaloha: 黨國不分得證6F 09/06 16:25
Sonian: 我覺得不行 可以試試看會不會變小黨7F 09/06 16:25
martinshih: 好呀 快點去把故宮寶物搬到國民黨黨部啊8F 09/06 16:25
victor6384: 有道理9F 09/06 16:25
skydog0119: 綠色共產黨 你們學不來的10F 09/06 16:25
kevinpc: 國民黨是中共的,請小英政府速速歸還11F 09/06 16:26
dvleo: 還不起來抗12F 09/06 16:26
poggssi: 沒故宮文物,台灣還有啥博物館能打?13F 09/06 16:26
blue999: 蠻合理的阿  綠共要算那麼清楚  國寶的確是他們的14F 09/06 16:26
ppp111683: 以為連泱泱都是黨產15F 09/06 16:26
Ahhhhaaaa: 故宮裡面的是國寶 不是黨寶16F 09/06 16:26
makurosu7: 太棒了  這才是真正的國民黨  請繼續發揮17F 09/06 16:26
xheath: 3洨 是土匪嗎XD18F 09/06 16:26
vincent8914: 邏輯滿分19F 09/06 16:26
xheath: 乾脆連動物園門票也給你們好了20F 09/06 16:26
lesnaree2: 故宮東西本來就中國的21F 09/06 16:27
Ahhhhaaaa: 國寶就是中華民國的國寶 不是黨寶22F 09/06 16:27
windbomb: 把南故宮送給國民黨經營好了23F 09/06 16:27
xheath: 動物園籠子還有空的 順便住進去省錢24F 09/06 16:27
jasonpig: 完全沒有國家的概念,只想到黨25F 09/06 16:27
templer: 古文物維護很花錢的26F 09/06 16:27
a240daniel: 國有跟黨有本來就應該算清楚 國民黨滾回金馬自己建國27F 09/06 16:27
lesnaree2: 台派不喜歡中國的東西  就把中國東西送走28F 09/06 16:27
a240daniel: 就給他們啊29F 09/06 16:27
soria: 說的好像國民黨有撥錢維護它一樣 到現在還搞不清楚啥是國產30F 09/06 16:27
suntime: KMT就是一堆這種不經過腦袋說話的人  難怪選都選不贏31F 09/06 16:27
woodiewoodie: 國庫通黨庫的思維來了 難怪不當黨產條例合憲 根本32F 09/06 16:28
woodiewoodie: 亂七八糟
templer: 國民黨愛經營博物館就自己開一家34F 09/06 16:28
blue999: 綠共  自己要算那麼清楚的 當初老k從大陸帶來黃金也該還35F 09/06 16:28
poggssi: 蟑螂自己去找荒島建立台灣國好嗎36F 09/06 16:28
widec: 殃殃大黨37F 09/06 16:28
holisea175: 黨=國家就會有這樣的想法38F 09/06 16:28
dearjohn: 繼續黨國不分只會被清算到底而已 www39F 09/06 16:28
Riverlz: 黨國不分 難怪敗選40F 09/06 16:28
askaleroux: 白癡黨國不分41F 09/06 16:28
ariadne: 好的,把蓋故宮跟挖山維護文物的費用從門票扣除後給KMT42F 09/06 16:28
mxr: 英粉們支持把故宮支那國寶銷毀43F 09/06 16:28
cdmlin: 國民黨有給搬故宮文物來台國軍的軍餉跟月退俸嗎?44F 09/06 16:28
ariadne: 費用不足的部份也由KMT補足,這沒問題吧?45F 09/06 16:29
ericisfish: 故宮+KMT都是中國的沒錯 通通送回去46F 09/06 16:29
papaganono: 國民黨殺的台灣人 靠台灣活到現在的帳怎麼算?47F 09/06 16:29
oxoxx: 地也都還來48F 09/06 16:29
ericisfish: TMD順便送過去49F 09/06 16:29
[圖]
WeGoYuSheng: 陳麗旭:韓國瑜殺人放火也要挺他!!51F 09/06 16:30
ting701: 邏輯是沒錯,但人民不買單52F 09/06 16:30
blue999: 綠共就是土匪一樣  有好處的東西 就在那裝傻說自己的53F 09/06 16:30
INNBUG: 那是中華民國的東西什麼時候變國民黨的54F 09/06 16:30
Raikkonen01: 黨比國大的觀念55F 09/06 16:30
chenyw: 這就黨國不分,跟共仔一樣黨就是國56F 09/06 16:30
INNBUG: 但看到國民黨還是這樣就放心了57F 09/06 16:30
keepstudying: 韓國於殺人放火都要挺:就是這個白癡講的58F 09/06 16:30
blue999: 然後人家黨產就算很清楚 一直追殺  根本自助餐59F 09/06 16:30
助選韓國瑜爆狂言!藍中央委員:「殺人放火也照挺」│TVBS新聞網
[圖]
選戰倒數!而國民黨高雄市長候選人韓國瑜,近期聲勢大漲,而這波韓流也橫掃「台南」,但近日台南市議員謝龍介競選總部成立的晚會上,擔任主持人的國民黨中央委員陳麗旭,竟然脫口說「韓國瑜殺人、放火、搶劫都要挺」,台下支持者也跟著激動吶喊,凍蒜大聲力挺!而對手陣營則認為,「造神造過頭。」 ...

 
poggssi: 沒有國民黨的國民政府和國民革命軍,你以為故宮文物能安61F 09/06 16:31
TISH12311: 泱泱我婆 敢跟我搶我就跟你拚命62F 09/06 16:31
PennyFinn: 真敢講63F 09/06 16:31
alladult: 眷村改建1.5兆,請國民黨買單65F 09/06 16:31
WeGoYuSheng: 國民黨真的想把「他們的」故宮寶物要回去,那先麻煩66F 09/06 16:31
kiaee: 那帶來的百萬難民後續的退休俸是不是也該清算67F 09/06 16:32
fifi0828: 中華民國總統現在是蔡英文 你們中國黨要跟中華民國討故68F 09/06 16:32
WeGoYuSheng: 把戒嚴時期,被他們以反共名義誣陷、殺掉的每一個生69F 09/06 16:32
keepstudying: 直接去網頁嗆爆他,廢物到極點70F 09/06 16:32
fifi0828: 宮?71F 09/06 16:32
poggssi: 全活到現在?從北京搬到南京、四川、台灣,花了多少錢?72F 09/06 16:32
WeGoYuSheng: 命都還回來73F 09/06 16:32
kiaee: 憑什麼要台灣人出74F 09/06 16:32
hclstarkid: 合理  本來就是國民黨帶過來的 是歷史也是事實 民進75F 09/06 16:32
hclstarkid: 黨是有什麼理由拿故宮的東西來炫耀收費
baddad: xDDDD77F 09/06 16:32
deutyi: 事理講不過去吧,畢竟算是國家的資產78F 09/06 16:32
asuka99: 還你們可以啊 然後你們國民黨麻煩一起打包回中國79F 09/06 16:32
LimYoHwan: 台灣國為什麼把支那國的文物放在故宮?80F 09/06 16:32
piliwu: 黨國不分講那麼大聲81F 09/06 16:32
blue999:  沒有國民黨 你以為會有故宮阿 國寶跟綠共一點屁關系都沒82F 09/06 16:33
ti1990: 我認為應該歸全中國14億人民83F 09/06 16:33
WeGoYuSheng: 國民黨先差舔共舔成這樣 憑什麼拍拍屁股說沒事就沒事84F 09/06 16:33
WeGoYuSheng: ?人命要先還回來啊!還不了就自殺謝罪啊!
fifi0828: 繼續講就對了 從中華民國逃難史一一釐清86F 09/06 16:33
ak904: 故宮國寶不是台灣的,這句話代表台灣不是中華民國的。87F 09/06 16:33
Klan: 大英博物館的東西也沒還中國啊88F 09/06 16:33
baolidab: 演給誰看89F 09/06 16:33
luna2000sea: 干那白痴90F 09/06 16:33
pqbd22: 綠黨的手段 國民黨沒一個腦袋會91F 09/06 16:33
lnicole2224: 沒救了92F 09/06 16:33
lxf: 正常發揮,kmt要滅了93F 09/06 16:34
inshadow: 看起來挺年輕的 怎會講出這種話 KMT真的沒人才了?94F 09/06 16:34
arumi416: 可以阿,但是請國民黨帶著這些中國的東西一起回中國,95F 09/06 16:34
serenitymice: 黨國不分,國庫通黨庫又一力證96F 09/06 16:34
aigame: 自己承認國庫通黨庫嗎97F 09/06 16:34
blue999:   能收錢的 就變國家的了   綠共就是土匪阿 黨產又分很開98F 09/06 16:34
arumi416: 讓國民黨從此消失在台灣99F 09/06 16:34
Nokia6030: 可以 只要整個ROChina遷回金門馬祖 終止代管100F 09/06 16:34
gn00399745: 這種人是黨代表喔101F 09/06 16:34
StarS: 這個黨真的沒救了,已經不知該怎麼說了102F 09/06 16:34
iamstrapless: 黨產就是黨國不分才被凍結 還想故宮? 沒有學乖啊103F 09/06 16:34
king32111: 都說是「國寶」了,是你國民黨的?104F 09/06 16:34
[圖]
poggssi: 那些說要把故宮文物給中共的,是五毛喔106F 09/06 16:35
king123: 照這邏輯國民黨帶來的人都是國民黨的 請國民黨負責養107F 09/06 16:35
Nokia6030: 另外 台灣人還要跟ROChina收保管費、保養費108F 09/06 16:35
WeGoYuSheng: 說故宮寶物不是台灣的,那就代表國民黨承認是他們硬109F 09/06 16:35
king123: 老兵還沒死的請國民黨負責養到死110F 09/06 16:35
WeGoYuSheng: 佔這個美國請他們託管的島,所以他們這幾十年欠的各111F 09/06 16:35
centra: 這真的是太聰明了112F 09/06 16:35
WeGoYuSheng: 種東西,都要還清才能滾蛋,包含人命、搜刮來的錢財113F 09/06 16:35
PttNoMoney: 狗黨就是有這些跟不上時代的老屁股 所以現在才這麼爛114F 09/06 16:35
Lumia5566: 邏輯正確 但民粹會崩潰115F 09/06 16:35
deangod99: 你乾脆不說 KMT硬起來去中國把共產黨趕下台就有收入了116F 09/06 16:36
TFsonG: 國民黨帶黃金是一場騙局,都拿去當軍費了117F 09/06 16:36
PttNoMoney:  ~ 連監督也督不到點 真的很可憐 拜託老人不想做事只118F 09/06 16:36
PttNoMoney: 會說屁話的 快退一退
shpongle: 故宮文物本就不屬於台灣  早該歸還中國120F 09/06 16:36
poggssi: 說台灣不是中華民國的更好笑,你就不要去投票選ROC總統121F 09/06 16:36
TFsonG: 國民黨去死吧122F 09/06 16:36
orange22: 國寶變黨寶 XD123F 09/06 16:36
ymuit: .......等於自爆嗎?!124F 09/06 16:36
WeGoYuSheng: 別忘了這個國民黨黨代表陳麗旭講過:就算韓國瑜殺人125F 09/06 16:36
WeGoYuSheng: 放火 依然要挺他!!
captainmm: 可以啊 那要付國家出的保管費和保險費127F 09/06 16:37
Nokia6030: 確實 但ROChina用台灣人的血汗錢養這些藝術品 該還錢128F 09/06 16:37
ads58791: 貨運公司主張貨物所有權?129F 09/06 16:37
blue999: 綠共就是開自助餐 黨產就是歷史因素 就扣帽子說不正義130F 09/06 16:37
SteamTank: 故宮門票收入扣掉營運跟維護也剩不多了吧...131F 09/06 16:37
k2902914: 民進黨怎麼輸132F 09/06 16:37
farnorth: 故宮國寶歸還國民黨133F 09/06 16:38
StarS: 整個KMT跟他們帶來的東西跟人都包一包送回中國好了134F 09/06 16:38
farnorth: 黨寶非國寶135F 09/06 16:38
espresso1: 真的是黨國不分136F 09/06 16:38
ttykimo: 一口國民黨 一口綠共 雙重思想病 真的很嚴重XDDDDD137F 09/06 16:38
poggssi: 應該查一下那些說要把故宮文物給中共的帳號,八成是五毛138F 09/06 16:38
zynisch: 非常有道理,建議現在就去搬!139F 09/06 16:38
Vorukrus: 不愧是國民黨 難怪民進黨能為所欲為 可憐140F 09/06 16:38
fifi0828: 民進黨一定又在偷笑了 有這群活化石141F 09/06 16:39
Dovahkiin: 國民黨跟共產黨都有黨大於國的朝廷觀。142F 09/06 16:39
blue999: 那國民黨有付出的 黃金 國寶  怎不算清楚還別人143F 09/06 16:39
bee12: 請支持「送國民黨回支那」144F 09/06 16:39
SinShih: 那種發言全場鼓掌 帥呆了145F 09/06 16:39
ginbay: 好啊 讚唷146F 09/06 16:39
jason1992999: 都什麼年代了還黨國不分XD147F 09/06 16:39
mucorn: 還你換垃圾黨滾回支那148F 09/06 16:39
bigcho: 邏輯正確149F 09/06 16:39
Nokia6030: 完全支持ROChina把保管費保養費付清後 回金馬重建故宮150F 09/06 16:39
panic2012: 黨國不分151F 09/06 16:39
LuMya: 鄉仕紳捐贈的還被入籍國民黨喔 怎麼這麼不要臉==152F 09/06 16:39
seastar1982: 乞丐想當強盜了153F 09/06 16:39
hitomi47: 還給中國吧 認祖歸宗154F 09/06 16:39
poggssi: 綠共好意思說人黨國不分?155F 09/06 16:39
fifi0828: 缺錢就去募款 不要想有的沒的自曝其短156F 09/06 16:39
uyulala: 腦殘黨157F 09/06 16:40
slimak: 有點可憐...158F 09/06 16:40
coolalex520: 國民黨:護台灣 保民主(笑翻了159F 09/06 16:40
LuMya: 垃圾kmt 今天dpp貪污70億也不要投給你們160F 09/06 16:40
gpo: 沒救了161F 09/06 16:40
taimu: 所以說 故宮是黨產?162F 09/06 16:41
poggssi: 不爽的,叫DPP把國軍、警察、國徽的車輪去掉啊163F 09/06 16:41
whiteadam: ??164F 09/06 16:41
ileva3324: 還在黨國意識,kmt就這樣腐爛吧165F 09/06 16:41
g4zoco196: 也是 現在的台灣澎湖也不是 中華民國不是國民黨的 是166F 09/06 16:41
g4zoco196: 日本放棄交與盟軍的
ringcoke: 故宮內文物要還也是中國的,維護不用錢嗎168F 09/06 16:41
galleon2000: 看到KMT這樣  就安心了169F 09/06 16:41
KCKCLIN: 哈哈 強盜強暴虐殺舔共黨償命和把破兆黨產全吐阿170F 09/06 16:41
KCKCLIN: 看到KMT這樣很可悲 難怪DPP能囂張
nuclearforce: 他馬的垃圾土匪黨172F 09/06 16:42
bjk3370: 黨國不分 繼續耍智障的黨173F 09/06 16:42
ihsineon: 國民黨可以把過去搜刮的民脂民膏吐出來目標174F 09/06 16:42
gotohikaru: 不然你要175F 09/06 16:42
awj32jo: 邏輯正確 那些都是中國的東西176F 09/06 16:42
KCKCLIN: 投過馬英九的賤種蠢渣優先去死啦 廢物177F 09/06 16:42
jason1992999: 看到某樓氣成那樣蠻好笑的178F 09/06 16:42
change701213: 又自己跳出來坦了 國民黨果然不會讓人失望179F 09/06 16:42
Ken99523: 那就滾出台灣帶回寶物啊幹 垃圾180F 09/06 16:42
GyroZep: 狗黨繼續舔共,舔到滅亡還不懂181F 09/06 16:42
ozakiinptt: 還給中國才對吧 滯台中國黨順便還回去182F 09/06 16:42
alladult: 眷村改建1.5兆,百萬老兵的就養金退休俸,請國民黨買單183F 09/06 16:43
shenmue1001: 有白藍教這兩個垃圾在野黨 DPP的2022根本不用太擔心184F 09/06 16:43
KCKCLIN: 舔共仔打包去支那當沙包作成飼料也是OK185F 09/06 16:43
requan: KMT都是這種貨色的數位諸葛亮,怎麼輸的都不知道186F 09/06 16:43
ethan30213: 所以是黨寶 XDDD?187F 09/06 16:43
KCKCLIN: 不要這樣 隱性選票可能少說600萬上下188F 09/06 16:43
L9C4iO: 有人在偷偷賣故宮內的文物189F 09/06 16:43
fifi0828: 去問蔣萬安啊190F 09/06 16:43
milk7054: 綠畜繼續無恥享用支那國寶愛台灣191F 09/06 16:43
aa384756: 行 我支持無條件清算 古董拿去 最少幾萬最多幾十萬的人192F 09/06 16:44
aa384756: 命要怎麼算呢
dslite: https://i.imgur.com/uNDVxJp.gif 泱泱大194F 09/06 16:44
kukuyo: 很好啊 你們國民黨帶過來的當然算你們的,租金水電繳一下195F 09/06 16:45
kukuyo: 就好了
homeaki: 笑死人 哪台灣木材紅檜還台灣197F 09/06 16:45
njpbjp6: ..... 我該說什麼198F 09/06 16:45
veryverybig: 放這麼久不用給台灣租金?199F 09/06 16:45
WowProctor: 中國大陸也是國民黨創的 全中國收入都歸國民黨200F 09/06 16:46
StarS: 當初執行政策強收的土地也該算一算還錢吧201F 09/06 16:46
lianpig5566: 看國民黨還是這樣我就放心了202F 09/06 16:46
hit1003: 只看到泱泱203F 09/06 16:46
dddc: 那麼  國民黨的人可以全數滾去金馬嗎204F 09/06 16:46
Nokia6030: 用台灣人的血汗錢繳的保管費保養費保險費先算一下205F 09/06 16:46
doom3: 蛤 不愧是搶來的 什麼都算他的206F 09/06 16:46
gan: 泱泱大>////<207F 09/06 16:47
tengl: 失去了團結人心的不當黨產  這個黨還有向心力嗎208F 09/06 16:47
RockManX8: 回你們中國去 別瞎忙209F 09/06 16:47
l75cm: 87邏輯不通210F 09/06 16:47
Lesterz: 可以ㄛ211F 09/06 16:47
MagicSword: 泱泱黨主席嗎?212F 09/06 16:48
b06606005: 帶著故宮一起滾出台灣就給過213F 09/06 16:48
Acce0912: 有夠低能214F 09/06 16:48
armedlove: 中華民國也是國民黨帶來的 國號還你們 加送你一艘船 通215F 09/06 16:48
armedlove: 通打包滾回支那如何
ALUBAWEBBER: 黨產吐出來就可以去死了217F 09/06 16:48
r0ck123: 這黨早該被掃進歷史垃圾堆 台灣人對他們太好218F 09/06 16:48
lovingyou: 國民黨要不要乾脆直接說,228是戰爭,台灣是你光明正大219F 09/06 16:49
novashine: 笑死 可悲的過氣政黨220F 09/06 16:49
lovingyou: 打下來的,整個台灣都是你國民黨的221F 09/06 16:49
DONX4: 難怪民進黨懶得理你們狂打柯而已 留你們永遠在野老二最好222F 09/06 16:49
nakayamayyt: 泱泱大223F 09/06 16:49
KCKCLIN: 民進黨也沒全抄出來啊 1996年認證就將近一兆了224F 09/06 16:49
phatman: 就一堆低能聚在一起,只能想到低能的結論225F 09/06 16:49
wen2233: 文物是中華民國政府的,國民黨以為現在還跟以前一樣是國226F 09/06 16:49
wen2233: 庫通黨庫嗎
cottontsai: 當初給18%有經過全民同意嗎?哪個黨同意的哪個黨自228F 09/06 16:49
KCKCLIN: 柯文哲自己自暴就好了 民進黨也不用處理 XD229F 09/06 16:49
cottontsai: 己出錢啊!230F 09/06 16:49
raku: 有這種代表,別人不用出手,根本就自滅了231F 09/06 16:50
fcuhua: 黃金?養拿群敗軍就空了 還敢提 怎不說四萬換一塊的事232F 09/06 16:50
BlackBass: 這個人有腦嗎?233F 09/06 16:50
crus4781: 爛到沒剩...DOP怎麼輸,可悲黨234F 09/06 16:50
aabb177: 這種程度的還在檯面上的話 還是繼續深蹲吧235F 09/06 16:50
requan: 這隻就韓粉,殺人放火也要奪回故宮黨產236F 09/06 16:50
KCKCLIN: 只有賤種蠢渣爛腦會信黃金論,四萬換一塊以及搶奪台人日237F 09/06 16:50
poggssi: 看到某幾樓以為台灣人都是挺綠的就覺得好笑238F 09/06 16:50
new71050: 滾回支那找寶吧239F 09/06 16:51
KCKCLIN: 產都裝死惹240F 09/06 16:51
yw1002: 這種話說一次就把民進黨弊案抵銷一次241F 09/06 16:51
becketliao: 到底是沒吃藥還是吃錯藥啊242F 09/06 16:51
twhuang28: 把中國的文物拿回去,台灣獨立應該有自己的東西,綠共243F 09/06 16:51
KCKCLIN: 可以確定的是很多賤種蠢渣被強盜強暴虐殺還挺244F 09/06 16:51
darkholy: 覺得國民黨真的沒沒出息245F 09/06 16:51
wen2233: 照他們的邏輯,外省將領、老兵是國民黨帶來的,18%、退休246F 09/06 16:51
twhuang28: 是吧?別再雙標,華航麻煩該改名了247F 09/06 16:51
wen2233: 俸應該是國民黨出錢248F 09/06 16:51
darkholy: 但是民進黨黨國不分已經超越國民黨了249F 09/06 16:52
iamsafin: 只要廢物KMT能離開台灣要甚麼都給它們了 完全絕望250F 09/06 16:52
jevin: 黨主席上台全部戴口罩  笑死人 是有多怕死251F 09/06 16:52
castawil: 去你媽的國民黨果然打心底認為台澎金馬是黨產252F 09/06 16:53
kinki999: 合理啊,獨派連中華文化不是都不要嗎253F 09/06 16:53
david22: 果然黨國不分254F 09/06 16:53
KCKCLIN: 還要給強盜強暴虐殺舔共黨?當然是財產充公人去死也無所謂255F 09/06 16:53
pikochu: 果然連在野黨都當不好,還有存在的必要?256F 09/06 16:53
qazsedcft 
qazsedcft: 國家和人也是257F 09/06 16:53
KCKCLIN: 沒有 早就該把國民黨全部肅清了 也只有台灣還能讓強盜強258F 09/06 16:53
KERABOYS: 國民黨佔有的土地全數還來吧259F 09/06 16:53
afjpwoejfgpe: KMT趕快死光換其他第三勢力上台好嗎260F 09/06 16:54
wbreeze: 國民黨繼續黨國不分我就安心了261F 09/06 16:54
KCKCLIN: 暴虐殺舔共黨吃香喝辣那麼久 賤種蠢渣太多也很可悲262F 09/06 16:54
mmchen: 事實263F 09/06 16:54
chuanglk: 整個國家都是綠共習英文的,大家是在傻什麼264F 09/06 16:54
KGarnett05: 黨國不分囉 幹來的就是自己的265F 09/06 16:54
etiennechiu: 國民黨當初強佔台灣還敢那麼大聲266F 09/06 16:54
runronrun: 那要不要順便全部回中國267F 09/06 16:54
charlietk3: 這個黨就是由這種腦子的人組成的,衰落不意外268F 09/06 16:54
y048318633: 笑話269F 09/06 16:54
homeaki: 台灣木材國民黨砍多少 這樣價格故宮文物也還不起270F 09/06 16:55
bluezero000: 黨國不分的病還沒好271F 09/06 16:55
irosehead: 可悲八卦版 國民黨這種想法都那麼多人出來護航272F 09/06 16:55
AlenCKH: 原來搬運國寶的是黨軍而不是國軍,228也是黨軍幹的所以政273F 09/06 16:55
lolicat: KMT 裡面的人都沒讀過歷史?274F 09/06 16:55
lazyfrog: 那你們國民黨站在台灣的土地上,是不是也滾出去 。國寶275F 09/06 16:55
AlenCKH: 府不必賠償應該找KMT算!276F 09/06 16:55
lazyfrog: 你們帶過來的,所以你們國民黨就滾回中國呀。277F 09/06 16:55
irosehead: 不要叫八卦版 叫雅虎新聞版好惹278F 09/06 16:55
poggssi: 也是,現在整個國家都是綠共的279F 09/06 16:55
A320: 這篇一堆支那4%柯糞賤畜推文就知道還一堆內奸未除280F 09/06 16:55
KCKCLIN: 正常的阿 除了隱性選民600萬 還有很多廢物五毛跳板仔281F 09/06 16:55
jk841102: 87 KMT282F 09/06 16:55
dufflin: 呸283F 09/06 16:56
buyfood: 外來政黨284F 09/06 16:56
zxzzzzzzzzzz: 黨國不分你乾脆叫共產黨285F 09/06 16:56
chenweichih: 嗯..幹...要怎麼反駁阿286F 09/06 16:56
KCKCLIN: 以及406"現在好好的管他過去做什麼"XD287F 09/06 16:56
RunPaPa: 提到泱泱想做什麼288F 09/06 16:56
rexaooil: 以前的國民黨看到現在的 會暈倒吧289F 09/06 16:56
kendan88: 還是黨國思考,沒救了290F 09/06 16:57
movieghost: 不要消費泱泱好嗎291F 09/06 16:57
DONX4: 肅清國民黨拜託順便剩下愛吃爐渣米的 貪汙的 都清一清阿292F 09/06 16:57
UnaBaby: 其實滿好笑的XDD293F 09/06 16:57
KCKCLIN: 其實國民黨除了反共舔共其他都一樣阿 黑金也從沒斷過294F 09/06 16:57
maxdream: 笑死295F 09/06 16:57
jplo: 所以當初國民黨是強佔國家文物然後帶來台灣嗎 ?296F 09/06 16:57
vltw5v: 黨國不分,國民黨快滅吧297F 09/06 16:57
JJS56: 忍不住哼起 野一野一野~喔喔喔~298F 09/06 16:57
ke1030: kmt我支持你299F 09/06 16:58
abc7005123: 她講話有經過大腦嗎??300F 09/06 16:58
jakewu1217: 演都懶得演  學學DPP好嗎 上位才不演301F 09/06 16:58
mxr: 瘦肉精綠畜 vs 支那藍畜 自尊對決 XD302F 09/06 16:58
aresa: 真無恥303F 09/06 16:58
chenweichih: 不能罵黨國不分 罵黨國不分的話 故宮東西又不在kmt304F 09/06 16:58
KCKCLIN: 五毛賤種蠢渣先死一死吧305F 09/06 16:58
jayouch: 誰敢欺負我大泱泱,我就打誰306F 09/06 16:58
chenweichih: 手上307F 09/06 16:58
rock0747: 支持,最好都收走308F 09/06 16:59
people2266: 帶來的是你的,那快帶著國寶回中國309F 09/06 16:59
gaddafi: 故宮那些寶物屬於全臺灣人民的 幹你娘車輪黨310F 09/06 16:59
F7mini158: 還是黨國腦,黨在國上,智障!311F 09/06 16:59
aifighter: 抱歉 只能用賣的 你要嗎?312F 09/06 16:59
wayne666: 可是228一堆人都說是國民黨幹的,現在他們這樣講沒錯阿313F 09/06 16:59
pilitiger: 黨國不分...314F 09/06 17:00
ash9911911: KMYT帶著你們的寶物滾回中國好嗎315F 09/06 17:00
tnssh211448: 這理論其實倒是沒錯  門票收入給他們  當然維護費&場316F 09/06 17:00
crazylovewow: 黨國不分,笑死,國民黨註定失敗317F 09/06 17:00
tnssh211448: 地費他們出318F 09/06 17:00
ter2788: 硬起來319F 09/06 17:00
josemora: 泱泱大黨 笑死320F 09/06 17:00
proletariat: 中華民國是國民黨的不是國民黨掌權都是竊國這樣?321F 09/06 17:00
proletariat: 被推翻剛好
a606152004: 笑死 支持你 快執行323F 09/06 17:01
legendrl: so what? 你們KMT丟了"中國",有種向共匪"討"回來嗎?324F 09/06 17:01
woaifafewen: 帶不帶來都不屬於你國民黨 貪成這樣 邏輯死去 笑死325F 09/06 17:01
AUwalker: 可憐 當年護送的部隊是領黨產還是政府的薪水?326F 09/06 17:01
Pixis: 可是故宮是政府機關,不是國民黨附屬組織327F 09/06 17:01
SapiensChang: 對啊中華民國憲法也是國民黨的 支持台灣重訂憲法啊328F 09/06 17:01
willie0171: 何時國民黨=中華民國?貪成這樣?329F 09/06 17:01
clairehao: 黨國不分330F 09/06 17:02
s94516: 合理啊   讓他們收331F 09/06 17:02
paul1951: 泱泱大奶332F 09/06 17:02
surfboy: 低能的發言,不愧是滯台支那賤畜黨。333F 09/06 17:02
lunanightcat: 我們把國民黨還給中國334F 09/06 17:03
serding: DPP爽死 對面連開會都在耍白痴335F 09/06 17:03
Shepherd112: 支離破碎336F 09/06 17:03
rook: 泱泱真的好大呀    可是不是黨337F 09/06 17:03
KCKCLIN: 贊同的同意的水準就跟KMT一樣高XD338F 09/06 17:03
Sammingy: 國庫通黨庫,國民黨真是死性不改339F 09/06 17:04
athome1: 垃圾黨還要緊抱92共識340F 09/06 17:04
Fice: 國寶是國家个啦341F 09/06 17:04
ShitHappens: 想入泱泱黨342F 09/06 17:04
aifighter: 要賣票的話 出價把文物和建物買一買 估一估給你貸款343F 09/06 17:04
surfboy: 遠東科大的素質,難怪會講這樣的話。344F 09/06 17:04
qazqazqaz13: 搶匪?345F 09/06 17:04
Cordierite: 這黨真的很幽默346F 09/06 17:04
venomsoul: 天啊-.-347F 09/06 17:04
mpcyl: 我以為是中華民國帶來的 原來是國民黨348F 09/06 17:04
cloudeda: 87349F 09/06 17:04
Lucifer66: 讚 這就是我們要的國民黨 哈哈哈哈350F 09/06 17:05
haudoing: 呵呵思想還在黨國不分的年代351F 09/06 17:05
c928: 誰跟你泱泱了,KMT滾,XD352F 09/06 17:05
dswing: 講這種話更落人以前黨國不分的口實,真的是腦殘353F 09/06 17:05
gaddafi: 臺灣不屬於你們 你們車輪黨強佔臺灣多少年啊付利息還不夠354F 09/06 17:05
SapiensChang: 清朝債券也是國民黨承接的啊 一兆美元先還給美國我355F 09/06 17:05
SapiensChang: 們再來談國寶啊
alan0204: 支那古董不是嗎?叫kmt帶著滾回支那357F 09/06 17:05
luciffar: 要錢 就快點上街頭搶回政權還在吹冷氣啊358F 09/06 17:05
BreezeMaple: 那個年代根本不可能分那麼清楚 蟑螂自找的359F 09/06 17:06
a2396494: 那MT要不要回歸中國?360F 09/06 17:06
dragon159: 可以阿 你們就抱著那些寶物滾回中國 但是在台灣掠奪的361F 09/06 17:06
iecdalu: 還以為國庫通黨庫時代哦362F 09/06 17:06
shining504: 國民黨這樣我就放心了,正常發揮363F 09/06 17:06
dragon159: 所有黨產全部都要還回來364F 09/06 17:06
brian060587: 智障365F 09/06 17:06
mjj90138: 笑死 國民黨真的沒救了 有夠白痴366F 09/06 17:07
broken119: 垃圾國民黨 外省被強迫當兵的 國民黨怎沒肩膀負責367F 09/06 17:07
jj920408: 還在黨國一體 國民黨真的不會讓人失望368F 09/06 17:07
QVQ9487: 垃圾黨怎麼沒被消滅369F 09/06 17:07
Kazetachinu: 支那糞黨有種去鬧啊 笑你他媽不敢喇哈哈哈哈哈370F 09/06 17:07
TNT5566: 國民黨可以帶著故宮東西一起回中國371F 09/06 17:07
RX0UNICORN: 真的372F 09/06 17:08
broken119: 國民黨來台灣幹嘛 滾回去拉幹373F 09/06 17:08
gaddafi: 要抗議還有臉要求吹冷氣他媽你個斃明明不屬於你 啥鬼東西374F 09/06 17:08
mercymercyme: 我只看到泱泱大375F 09/06 17:08
bobby94507: 永遠在野376F 09/06 17:09
www8787: 把國寶丟回中共也不會給狗民黨辣==377F 09/06 17:09
qaz223gy: 國民黨在公三小啊 幹378F 09/06 17:09
pinkneku: 連在野黨都當不好 一點反省能力都沒有 可憐哪379F 09/06 17:09
pewsggl: 幹你娘啦380F 09/06 17:09
jaguars33: 幫kmt高調 科科381F 09/06 17:09
playernie: 的確是 中國的東西就是國民黨的 台灣的就是台灣的382F 09/06 17:09
piovoso: 國民黨這樣我就放心了383F 09/06 17:09
eric5604: 支持你趕快去抗爭,我等著笑(欸?384F 09/06 17:09
badface: 整個黨都是XX385F 09/06 17:09
gaddafi: 那些東西哪一樣是中國的?那些東西都是清朝的386F 09/06 17:10
zillzill: D能言論387F 09/06 17:10
robertchun: 給讚 中國最優質的政黨388F 09/06 17:10
NTJL: 逃難來的黨 吸台灣的血還吸不夠?389F 09/06 17:10
chocopie: 我只看到一群人在自慰390F 09/06 17:10
colin0000123: 國民黨總是能超越我的想像391F 09/06 17:10
jean40686219: 黃金也是國民黨搬過來的392F 09/06 17:10
MaySnow2010: 爐渣、美豬這麼多槍給你們撿你們不撿393F 09/06 17:10
tea8888: 228、白色恐佈,納命來。394F 09/06 17:10
gaddafi: 臺灣曾經屬於清朝 所以那些東西還給臺灣剛好而已395F 09/06 17:10
chocopie: 已經忘了甚麼時候要反攻大陸396F 09/06 17:10
firehand: 照k的邏輯中共要拿回去也不能反對?397F 09/06 17:10
chunglee: 當初帶來的寶物是中國的不是台灣的那國民黨可以滾回中國398F 09/06 17:11
cottontsai: 那麼本事,怎麼不去跟中共要回政權跟土地?399F 09/06 17:11
chunglee: 嗎?400F 09/06 17:11
NTJL: 那你們有給台灣租金嗎? 笑死 霸佔一堆土地金錢401F 09/06 17:11
zylsg5347: 那把國旗上的白癡車輪也拿走啊402F 09/06 17:11
gaddafi: 臺灣這塊土地才不屬於國民黨 快點滾回去403F 09/06 17:11
NTJL: 果然 支那人邏輯都一樣 動不動就泱泱大X、任何東西都你們的404F 09/06 17:12
jaceda: 靠北,這不是國家的嗎,關KMT屁事405F 09/06 17:12
ptta: 不忍噓406F 09/06 17:12
AndyMAX: 2020年了 還有家天下的皇帝思想407F 09/06 17:12
gaddafi: 四萬塊換一塊錢 馬的 那些故宮國寶拿來當償還都不夠啦408F 09/06 17:12
silent98: 國民黨是世界笑話 觀念滿分!409F 09/06 17:12
marsonele: 你們就不耐打啊410F 09/06 17:13
jcshie: 除了不知道怎麼當在野黨以外的論述都很XDD411F 09/06 17:13
a78720505: 維護費土地跟人員費呢?412F 09/06 17:13
marsonele: 一堆公子小姐413F 09/06 17:13
gaddafi: 臺灣這塊土地收留你們中國難民黨70年 沒收你們租金就不錯414F 09/06 17:13
jcshie: 照這個說詞 你們這些跑來臺灣的都應該滾不是嗎415F 09/06 17:14
jetalpha: 這就跟二戰後「台澎資源應歸中國國民黨」的想法一樣嘛!416F 09/06 17:14
limelemone: 帶著你的黨產滾回"祖國"吧  88417F 09/06 17:14
greensdream: 搶劫犯在靠腰贓物所得沒分他們欸418F 09/06 17:14
reexamor: 黨=國的概念 和中共很像!呵呵419F 09/06 17:14
Aueston: 可以,很國民党420F 09/06 17:14
marisaac: 老K正常發揮421F 09/06 17:14
SapiensChang: 還在講黃金 XD 誰能說說當初黃金的貢獻是啥 該不會422F 09/06 17:14
tso2054852: 故宮東西都給你,整個黨團滾出臺灣看要去哪宏淦隨便423F 09/06 17:14
SapiensChang: 還以為台灣有現在的繁榮是當初的黃金基礎吧424F 09/06 17:14
aokitaka: 真的要算清楚的話,美國爸爸開始算美援的錢然後要KMT給425F 09/06 17:14
flamax: 土地改革是国民党給農民賺的錢,要感謝党426F 09/06 17:14
CrackedVoice: 繼續黨政不分427F 09/06 17:14
aokitaka: 臺灣人,KMT全部黨員去賣屁股不曉得夠不夠還428F 09/06 17:14
k9998k2000: 東西給妳 國民黨跟滯台中國人游回去中國如何429F 09/06 17:14
jetalpha: 然後就在時為日本領土的台澎搜刮米糖等資源運向東亞大陸430F 09/06 17:14
epidemic000: 泱泱大431F 09/06 17:15
caseyst: 有本事滾回大陸阿 國寶讓你順便帶走432F 09/06 17:15
greensdream: 把東西還給共匪他們會很開心了433F 09/06 17:15
greensdream: 你大國民黨就能順利回歸共產黨了
ahw12000: 民眾黨還比這個好很多435F 09/06 17:15
superprada: 可以喔,派軍隊來搶吧436F 09/06 17:15
eason810117: 還講故宮就黨國不分啊437F 09/06 17:15
mo0219: 所以就是黨國不分阿!438F 09/06 17:15
victory6: 等你們執政的時候自己還啊,不要到時候又不還。439F 09/06 17:15
Clairewu: 支持中國國民黨帶著寶物滾回祖國440F 09/06 17:15
victory6: 下任台北市長就有機會了,可以當政見啊XD441F 09/06 17:15
sbilor: 好啦 都拿去啦442F 09/06 17:15
nega883100: 啥443F 09/06 17:15
ericinttu:   應該是整個中華民國都是國民黨的八 一個小故宮算啥??444F 09/06 17:15
jcshie: 馬的這種垃圾黨鐵票還是那麼鐵445F 09/06 17:15
gaddafi: 國共內戰 四萬換一塊  操 臺灣所有米糧食全部被運到中國446F 09/06 17:16
newland: 真的慘 台灣在野黨完全不成氣候阿...447F 09/06 17:16
sbilor: 國民黨跟文物一起回歸中國448F 09/06 17:16
a58805082: 可以喔,覺得現在國民黨選票還是太多了嗎449F 09/06 17:16
rainxo6p: 難怪你們被已經爛透的民進黨壓在地上打www450F 09/06 17:16
gaddafi: 結果你國民黨還是丟掉整個「大陸」 廢物451F 09/06 17:16
Tsucomi69: 呵呵,廢物快點倒一倒452F 09/06 17:16
YuenYang5566: 好啊 為了打仗掠奪的糧食錢還來啊453F 09/06 17:16
Maiar: 黨國黨國 當然是黨大於國了 看來國民黨相當懷念啊 難怪舔共454F 09/06 17:16
ohfulow: 國庫通黨庫,國寶變黨寶455F 09/06 17:16
YuenYang5566: 國寶的國事國民黨的國 ZZ456F 09/06 17:16
canis831025: 其實很合理欸  真要算這麼清楚就不要雙標457F 09/06 17:16
jetalpha: 先換算新台幣乘四萬倍還給台澎人如何?逆算四萬換一元嘛458F 09/06 17:17
Clairewu: 江啟臣在台下還聽得下去這種言論也是厲害了459F 09/06 17:17
jcshie: 就這種廢物垃圾黨 成天扯臺灣後腿 還有臉出來要錢460F 09/06 17:17
ericinttu:   沒有國民黨八年抗戰來台經營 台灣現在能有這麼好?461F 09/06 17:17
bhh0026: 送球王KMT 是中華民國帶過來 KMT只是政黨462F 09/06 17:17
MIZUNO1112: 各種秀下限463F 09/06 17:17
jojo87: 怎麼能有這種嘴臉......464F 09/06 17:17
ukukoro: 中共竊國,要求將這些年來的稅歸還國民黨465F 09/06 17:17
caesarh: 民進黨:再吵就全部還給中國!466F 09/06 17:17
NSYSUEE: 黨國不分的垃圾黨,故宮的東西不是國民黨的,是台灣人民467F 09/06 17:18
jcshie: 笑死人 這種論調還有腦殘挺468F 09/06 17:18
sps10513: 國家的寶物是國民黨把持的政府帶來的就是國民黨的...469F 09/06 17:18
iqeqicq: 反正沒有聯合國教科文組織認證,可憐哪470F 09/06 17:18
NSYSUEE: 的471F 09/06 17:18
r5e97nk63: 承認黨國不分了吧XDDDD"  把日本財產全部吐出來啊472F 09/06 17:18
BBBears: 可憐啊473F 09/06 17:18
cd928: 笑死,那台灣是台灣人的,國民黨可以滾出台灣了474F 09/06 17:18
lawrence7373: 黨產會的生意又來了475F 09/06 17:18
ok771105: 好啊,帶著滾出台灣476F 09/06 17:18
allen820521: 沒錯啊,如果綠共真的要算那麼清楚的話477F 09/06 17:18
gaddafi: 1948年 四萬塊換一塊 去支應你們的國共內戰 結果還是打輸478F 09/06 17:18
sps10513: 黨國不分的餘孽,始終不知自己黨逐漸被淘汰的原因479F 09/06 17:18
cd928: 故宮換國民黨  可以480F 09/06 17:19
tokuchi2013: 這時候蟑螂們又承認中華民國了,呵呵481F 09/06 17:19
vergil1120: 真要算那麼清楚,國民黨全部都該保持反攻大陸才對482F 09/06 17:19
fade11: 故宮維護賠錢時,也國民黨承擔嗎?483F 09/06 17:19
julia66: 神經病484F 09/06 17:19
gaddafi: 講具難聽一點的 你們中國的內戰 關我們臺灣人屁事485F 09/06 17:19
josephbb65: 這種心態滅黨也不意外486F 09/06 17:19
jetalpha: 中華民國抗戰1937-1945/09,跟時為日本領土的台澎無關。487F 09/06 17:19
cwf921: 嫌票太多?488F 09/06 17:19
ji2my: 可以啊 帶著文物離開台灣就行489F 09/06 17:19
BJ0912: 故宮有賺錢嗎 感覺就是賠錢事業…490F 09/06 17:19
jcshie: 還全場鼓掌 好喔 拜託你們全黨努力去幹這件事 我就看你們491F 09/06 17:19
whu328: 不錯,國民黨這想法很共產。492F 09/06 17:19
jcshie: 要多少智障鐵票還沒死493F 09/06 17:19
hank81177: 都2020年了還在黨國不分,可憐哪494F 09/06 17:19
rererere147: 沒錯 通通拿去賣掉495F 09/06 17:19
mihono: 國愚黨又開始了....496F 09/06 17:19
s30127s: 好啊 那故宮還給國民黨 故宮寶物跟國民黨一起滾出台灣 一497F 09/06 17:20
Harrison1814: KMT正常發揮498F 09/06 17:20
s30127s: 堆吸血蟲499F 09/06 17:20
linweijie: 2024讓國庫再次通黨庫!!500F 09/06 17:20
alex9708hero: .....501F 09/06 17:20
higameboy: 國庫通黨庫很平常的事情502F 09/06 17:20
jcshie: 要算是嗎?故宮每年維護的經費都拿來再談啊503F 09/06 17:20
jetalpha: 正確的說,除了中華民國跟蘇聯、美國一起炸過台澎之外,504F 09/06 17:20
magecanby: 黨國不分 垃圾狗黨505F 09/06 17:20
jetalpha: 中華民國對日抗戰實際上跟時為日本領土的台澎沒什麼關係506F 09/06 17:21
rock8698: 這人是腦袋被撞到了?507F 09/06 17:21
cd928: 國民黨快帶著故宮滾出台灣508F 09/06 17:21
svel: 滾去金門稱王啊!509F 09/06 17:22
soarling: 看來這個廢物黨還不知道自己是怎麼死的 呵呵510F 09/06 17:22
qaz223gy: 難怪被共產黨 民進黨打敗511F 09/06 17:22
F1ower: 是中華民國政權帶來的,不是國民黨帶來的,這發言完美解釋512F 09/06 17:22
roc1110: 國民黨自我認證黨國不分....513F 09/06 17:22
F1ower: 什麼叫黨國不分514F 09/06 17:22
leon1757tw: 你也不屬於台灣啊 滾回中國去515F 09/06 17:22
wei09955104: 滾啦白痴們516F 09/06 17:22
CmDawn: 所以承認顛覆國家是顛覆kmt了?517F 09/06 17:22
faiya: 這樣啊,連中華民國也順便打包好不好?518F 09/06 17:22
PAPABEAR: 想錢想瘋了519F 09/06 17:22
hayato01: 笑了XDDD520F 09/06 17:22
LWEN: XDDDD 國民黨真的很多天才521F 09/06 17:23
Bluebear: 蠢成這樣,還是滾回中國當爺爺吧522F 09/06 17:23
mynews: 這個垃圾黨523F 09/06 17:23
svel: 台灣國收留這批垃圾已經夠衰洨惹524F 09/06 17:23
Maiar: 會講出這種離婚分手跟台灣人好好算清的話 KMT已絕望自外 爽525F 09/06 17:23
jesuscries: 安定信賴 KMT 哈哈哈哈526F 09/06 17:23
Maiar: 永遠別想再執政了 包袱款一款自己滾比較快啦 垃圾黨527F 09/06 17:23
jcshie: 黨產被掐住就全黨不能自理到這種地步528F 09/06 17:23
sugata: KMT繼續這樣我就放心了529F 09/06 17:23
seeback: 這腦袋很國民黨530F 09/06 17:23
gaddafi: kmt滾去金門 金門還能小3通呢疫情結束你們通敵還很方便呢531F 09/06 17:23
gaddafi: 難怪夾手手都能勝選
stlinman: 有道理!    不能黨國不分,是國民黨帶來應該先還給黨啊!533F 09/06 17:24
mine1940: 有泱泱就按讚534F 09/06 17:24
beautyqu: 妳承認當初妳們是空降的了吧!根本就不是正統政權535F 09/06 17:25
lustpp: 眷村的地先還來536F 09/06 17:25
nolla1730: 國民黨:國庫就是我的黨庫,哈哈537F 09/06 17:25
sbkqwer: 國民黨從大陸來的 趕快還給大陸538F 09/06 17:25
ss59418ss: 我覺得可以喔,全中國黨一起滾回北京故宮啊539F 09/06 17:25
kihoko: 好唷,滾。540F 09/06 17:25
m4tl6: OK啊…國民黨請離開台澎541F 09/06 17:25
laacon: 戒嚴時期和228死後的受害者 一個人先賠個兩千萬再說542F 09/06 17:25
CriminalCAO: 國民黨是不是一堆智障阿?543F 09/06 17:25
after1: 先把印花稅退回來吧544F 09/06 17:26
syk1104: 那故宮營運經費也給國民黨付好了545F 09/06 17:26
yfguk6685: 難怪下一步是KMT歸零546F 09/06 17:26
acolam: 趕快倒一倒吧547F 09/06 17:26
m810415: 不是台灣的那你滾出台灣阿548F 09/06 17:26
WHOKNOW4: 就是你們太廢只會自慰DPP才敢這樣看台灣人沒有549F 09/06 17:26
pchome321: 瘋了550F 09/06 17:26
jetalpha: 49後來台中國人及其後裔爛起來就是這德性,慘不忍睹(?551F 09/06 17:26
huangmouse: 超狂552F 09/06 17:26
syk1104: 國民黨也不是台灣的...滾回中國好嗎553F 09/06 17:26
khkhs: 原本想噓,但有泱泱所以給箭頭554F 09/06 17:26
hobbysleep: 就是對手整組都這樣民進黨才不怕爛555F 09/06 17:26
gaddafi: 你國民黨才不屬於臺灣 最好解散556F 09/06 17:27
kannazuki00: 呵呵呵557F 09/06 17:27
KJC1004: 台灣也不是你的 全黨滾出去啊幹558F 09/06 17:27
jcshie: 第一次政黨輪替都二十年了 還不知道怎麼當在野黨的拉基559F 09/06 17:27
scott0118: 我以為推文會有滿滿的六福村560F 09/06 17:27
do12367: 笑死 這種程度被清算真的剛好而已561F 09/06 17:27
ssivart: 一句話 幹你娘562F 09/06 17:27
gaddafi: 在野黨也至少當過12年了 還是什麼都沒學會 只會舔共563F 09/06 17:27
KJC1004: 黨國不分 支那人是不是都喜歡這一套?564F 09/06 17:27
bio2133: 真不要臉565F 09/06 17:27
magicalko: 軍隊也是國民黨帶來的,是不是可以兵言柬了!!566F 09/06 17:27
magicalko: 要用當初你們帶來的喔
artpower:                           錮攻的妖魔鬼怪別來中興新村568F 09/06 17:28
mazinger: 隨便啦 反正泱泱我的569F 09/06 17:28
jh020806: 好啊 那國民黨也不是台灣的 還不快滾回去中國570F 09/06 17:28
wen2233: 國民黨爛到沒下限,可憐571F 09/06 17:28
Zoro80298: 慘 不思進取的黨 難怪持續沒落572F 09/06 17:28
eldis: 這麼說的話,應該歸中國共產黨吧573F 09/06 17:28
annie06045: 其實有道理 不然黨產全凍結了 要怎麼找收入574F 09/06 17:28
sl11pman 
sl11pman: 全中國的金銀財寶都是咱國民黨的高官的575F 09/06 17:28
annie06045: 請把故宮文物還給國民黨 轉型正義 叭叭叭576F 09/06 17:29
NiaosongLBJ: 燒給你阿公577F 09/06 17:29
jcshie: 除了吃裡扒外跟支那同步惡搞臺灣以外 你國民黨還會什麼578F 09/06 17:29
Agneta: 國民黨就這樣一直爛下去剛好579F 09/06 17:29
haoyin0105: 確定要吵這個?228血債你們現在還?580F 09/06 17:29
rocky1975: 讚!! Kmter完全正常發揮!!581F 09/06 17:29
kdh: 笑死,可以努力ㄧ點嗎582F 09/06 17:29
pigofwind 
pigofwind: 國民黨最大的問題就是這些黨代表還在黨國一家的思考模583F 09/06 17:29
eupa1973: 推,國寶還來584F 09/06 17:29
pigofwind 
pigofwind: 式吧585F 09/06 17:29
gaddafi: 還弄一個草包出來消耗臺灣人製造莫大的社會成本 操妳馬的586F 09/06 17:29
k70113: 智障支那黨死全家587F 09/06 17:29
yeyun: 都2020了還能黨國不分588F 09/06 17:29
FJU597660557: 講話的風格與4%仔很像589F 09/06 17:29
billblack: 民主國家 想玩黨即國家 笑死590F 09/06 17:30
steven30528: 這哪來的白癡?591F 09/06 17:30
fidniey: 好了  下去592F 09/06 17:30
vaiking0120: 故宮寶物不是國家的嗎 關國民黨屁事?593F 09/06 17:30
gaddafi: 在野十二年 還是沒學會怎麼在野 那麼就一直在野下去吧594F 09/06 17:30
fishthehuman: 其實有點道理 但一聽就知道只是…我懶的繼續打了算595F 09/06 17:30
WilliamEX: 大陸也是國民黨丟的596F 09/06 17:30
fishthehuman: 了…597F 09/06 17:31
vaiking0120: 喔 我忘了 國民黨一直認定中華民國是他們獨有的598F 09/06 17:31
popm: 還可以,拿了就滾回中國599F 09/06 17:31
Thragna: 有些智障還活在一黨專政的時代600F 09/06 17:31
yang0623: XDDD 天啊 今年是2020?601F 09/06 17:31
Thragna: 難怪不會進步啊602F 09/06 17:31
Iristopher: 其實也算有道理  一條一條算清楚603F 09/06 17:31
jixiang: 何時要將中國國民黨還給中國?604F 09/06 17:31
g9911731: 狗冥黨在台這麼久,算租金。現在可以滾了605F 09/06 17:31
tfhkrt: 老馬怎麼穿得那麼年輕606F 09/06 17:31
gaddafi: 打不過共產黨就選擇舔共媚共 是有多麼下賤 恥力沒有下限607F 09/06 17:31
harry801030: 赤崁樓的收入應該算荷蘭人的吧608F 09/06 17:32
wisonmann: 泱泱609F 09/06 17:32
oliver81405: 智障糞黨610F 09/06 17:32
emilyrose: 野一野,黨比國大?611F 09/06 17:32
ap954212: 泱泱我婆612F 09/06 17:32
skywalker655: 吃乾抹淨噁心嘴臉快離開台灣613F 09/06 17:32
hojapaul: 黨產法真的很重要614F 09/06 17:32
ghj511289724: 你哪位?615F 09/06 17:32
Andrew90: 十大建設國民黨蓋的 綠共不喜歡可以不要用616F 09/06 17:33
annie06045: 我們台灣人 把中國文物的門票收入還給國民黨啊617F 09/06 17:33
mo42: 當初帶故宮來的那個KMT可是要反共收復中國的喔 現在呢??618F 09/06 17:33
gaddafi: 臺灣的故宮國寶 屬於全體臺灣人民 不屬於任何政黨和政府619F 09/06 17:33
annie06045: 故宮都中國文物 關台灣闢室???620F 09/06 17:34
Mulice0926 
Mulice0926: 這群垃圾果然還是死光最好621F 09/06 17:34
hatephubbing: 蔣中正會不會氣到跳出來622F 09/06 17:34
humorchou: 垃圾國冥黨還沒醒623F 09/06 17:34
fxntdsxdr: 黨國不分的北七還是下去吧624F 09/06 17:34
pita30: 好喔,故宮支出也算你們的625F 09/06 17:34
gaddafi: 兩蔣的屍體先運回中國再來談 死後還要繼續侵佔臺灣人土地626F 09/06 17:35
neo9549005: 整個黨都是智障627F 09/06 17:35
meowchen: 紅毛城:蛤? 我要外匯?628F 09/06 17:35
Sayd20: 4%黨和藍腦快點推爆629F 09/06 17:35
bbb1564: 綠共能上台就是因為你們太廢630F 09/06 17:35
gaddafi: 什麼中國文物 中國是近代名詞 出現在1912年之後631F 09/06 17:35
jcshie: 不好意思 這群廢物當在野都是浪費 全都人間蒸發最好632F 09/06 17:36
carl578: 剩一張嘴。633F 09/06 17:36
wheatsoul: 帶來的叫中華民國,她還是不知道為什麼不當黨產不當的634F 09/06 17:36
wheatsoul: 原因嗎?泱泱大黨講這個會被笑死
MisuzuXD: 笑死 難怪DPP再爛都可以執政636F 09/06 17:36
sakidiforld: 這水準… 歸kmt遲早被敗光637F 09/06 17:37
may60524: 有這種黨員就放心了638F 09/06 17:37
libramog: 難怪綠共橫著走   一堆笨蛋639F 09/06 17:37
annie06045: 蟑螂邏輯錯亂中 啊不就那麼愛分 分清楚啊640F 09/06 17:37
yongticle: 欸 怎麼覺得有道理641F 09/06 17:37
nagilaman: 可以啊,如果黨付得起維護費的話642F 09/06 17:37
sh1020112: 幹難怪國民黨輸成智障643F 09/06 17:37
adidasggh: 有骨氣的綠蟑螂就應該推,中國的東西不要644F 09/06 17:37
pig19911118: 國民黨上下都是這些廢物難怪連垃圾民進黨都選不贏645F 09/06 17:38
Bansar: 快 來人吧國民黨送回對岸646F 09/06 17:38
airyumin: 有泱泱就推…我承認我是泱泱黨的…647F 09/06 17:38
syk1104: 真要分清楚kmt就真的該滾回中國阿~沒毛病648F 09/06 17:38
tetsuro: 4%很嗨649F 09/06 17:38
will331: 不錯歐,野起來。這樣我就放心了650F 09/06 17:38
annie06045: 我們台灣人不需要中國文物好嗎 只需要台灣價值!651F 09/06 17:38
pchome321: 美豬這麼好打不打  真的是哦652F 09/06 17:38
allenthu: 國語和中文也國民黨帶來的,所以乾脆講國語寫中文的國民653F 09/06 17:38
ucieric: 黨國不分一直是KMT的傳統654F 09/06 17:38
Vistorieaz: 中國國民黨不是臺灣的是大陸的,賤畜難民滾回去655F 09/06 17:38
allenthu: 黨都抽稅,拜託你kmt快點這樣做656F 09/06 17:38
gaddafi: 侵佔臺灣七十年 屠殺無數臺灣人 抵租金、賠償都不夠好嗎657F 09/06 17:39
Kedge: 白痴 這就是黨國不分的白痴658F 09/06 17:39
pokemonoxo: 泱泱正659F 09/06 17:39
HHH555JJJ: 殺人黨660F 09/06 17:39
bread220: 國民黨是對岸來的,要不要順便回去661F 09/06 17:39
zardmih: 黨>>>國 臭惹嗎!662F 09/06 17:39
gdtg10900: 因為錢才存在的黨嗎?663F 09/06 17:39
annie06045: 故宮那些都是中國落後匪區的東西 不需要故宮文物664F 09/06 17:39
jcshie: 覺得有道理的 麻煩維護費也跟國民黨要一下 然後既然國民665F 09/06 17:39
jcshie: 黨都不屬於臺灣 請滾出去
MyPetTankDie: 火場救出來的東西屬於自己的邏輯XD667F 09/06 17:40
cinderchou: 沒錯啊 算清楚就是這樣668F 09/06 17:40
guolong: 馬的北七黨,難怪菸黨如此囂張669F 09/06 17:40
lliuooia: 智障670F 09/06 17:40
sophia810130: 國民黨也不是台灣的政黨捏671F 09/06 17:40
NTUHandsome: 這種當黨代表難怪國民黨扶不起672F 09/06 17:40
iscl6: 可憐哪 什麼話都別說 綠共這麼爛躺著都上 現在智力測驗難考673F 09/06 17:41
iscl6: 了
HAHAHUNG: 泱泱 大 https://i.imgur.com/6FUnyWz.gif675F 09/06 17:41
prkfcpr: 泱泱躺著也中槍676F 09/06 17:41
imtaku: 真的好笑677F 09/06 17:41
raja1003: 智障把國家的東西當成黨的678F 09/06 17:41
redhill86: 要不是你們台灣人早就是美國人了。679F 09/06 17:41
st002650: 完美詮釋黨國不分680F 09/06 17:41
gaddafi: 「中國」國民黨 滾出臺灣!臺灣的新臺幣也不屬於你們!681F 09/06 17:41
westfour: 推泱泱682F 09/06 17:41
jcshie: 廢物到無法黨庫通國庫就全黨自理不能 唯一知道的事情是舔683F 09/06 17:41
qoo55253: 國民黨這樣我就放心了684F 09/06 17:41
jcshie: 共685F 09/06 17:42
kbpoop: 同意686F 09/06 17:42
lazioliz: 泱泱大奶被掐687F 09/06 17:42
spirit119: 中華民國總統應該是國民黨的688F 09/06 17:42
annie06045: 支持國民黨帶著故宮文物滾回去 台灣人不需要故宮 只需689F 09/06 17:42
annie06045: 要台灣價值
flow5168: 警總的帳也找國民黨算691F 09/06 17:43
PRSVW:  這邏輯    昏倒692F 09/06 17:43
jcshie: 如果你廢物KMT可以把國家給故宮的經費都吐出來 好喔 然後693F 09/06 17:43
jcshie: 你們抱著那些東西滾去支那死
gdtg10900: 這個是內奸嗎來救援執政黨的哈695F 09/06 17:44
a31670323: 笑死廢物黨696F 09/06 17:44
gaddafi: 一群草鞋兵 他媽的國民黨軍隊登島臺灣 連水龍頭都沒見過697F 09/06 17:44
LiLiLuLo: 國民黨再繼續耍白癡沒關係,換蔣萬安選台北市長一樣會輸698F 09/06 17:44
jcshie: 連自己是臺灣人都講不出口的 不要臭了台灣的空氣699F 09/06 17:44
luka921222: 看你們要怎麼把他從機關裡面拔出去700F 09/06 17:44
sisi677: 全場鼓掌?整個黨都是__701F 09/06 17:44
MaxGDAM: 智障702F 09/06 17:44
c6b7yntz: 問題是,他說的沒錯啊@@ 的確是他們帶過來的阿。703F 09/06 17:44
gaddafi: 操他媽的是有多落後啊 因為臺灣人比你中國人進步所以自卑704F 09/06 17:45
dsa888888: 這厲害了705F 09/06 17:45
s51007john: 水啦 完美展現土匪本性706F 09/06 17:45
jcshie: 還有人覺得沒錯 黨國不分你他媽不認識字嗎707F 09/06 17:45
Moveaway: 國民黨把文物包一包滾回去大陸,台灣人捨棄中華民國國號708F 09/06 17:45
Moveaway: ,獨立建國
Zhang274: 看到人家怎麼成功的,再看看一堆既得利益集團怎麼敗的,710F 09/06 17:46
rock5421: 推文一隻崩潰三久狗711F 09/06 17:46
Bonkon: 靠北 不演了是吧  那就繼續萬年在野黨囉712F 09/06 17:46
freaky2586: 樂見KMT繼續智障下去滾出台灣713F 09/06 17:46
Zhang274: 到現在還在拿黃金714F 09/06 17:46
gaddafi: 就仗著自己手上有槍 殘殺我們臺灣人殺光我們臺灣高級菁英715F 09/06 17:46
usaku: 可以,但滾出台灣716F 09/06 17:46
rock0807: 維護費用自己出717F 09/06 17:46
loveyanzi03: 那你國民黨帶著黃金和國寶離開台灣啊 笑你不敢718F 09/06 17:46
Edge5566: 嗯 回中國之前國家人民給的薪水錢優惠先還清719F 09/06 17:46
tony811207: 那以後可能就沒人要去故宮了720F 09/06 17:46
jcshie: 他們不是不會當在野黨 是吃香喝辣太久了 沒錢就失能失智721F 09/06 17:47
GodsRevival: 藍蛆白蟑居然還說邏輯正確?果然都垃圾722F 09/06 17:47
nedetdo: 黨國不分的極致再現723F 09/06 17:47
funfun789016: XDDDD724F 09/06 17:47
gaddafi: 一個國民黨草鞋軍官把水龍頭拆掉沒收 以為這樣就會有水725F 09/06 17:47
vicky8610: 確實故宮文物幾乎都是國民黨帶過來的 想整碗拿去的綠畜726F 09/06 17:47
vm03vm03: 先把從台灣跟日本人手裡搶的錢換來,還有台灣山林裡的檜727F 09/06 17:47
vicky8610: 也是夠噁心728F 09/06 17:47
vm03vm03: 木729F 09/06 17:47
gaddafi: 以為隨便安裝在他的軍官寢室的牆壁上 打開就會有水流出來730F 09/06 17:47
annie06045: 看到蟑螂邏輯多錯亂了吧 嘻嘻 現在的黨國 是哪個黨呢731F 09/06 17:48
jcshie: 推文有一樣失智失能的在贊同欸 哈哈哈732F 09/06 17:48
gaddafi: x就知道你們這些中國難民支那賤畜黨的素質有他媽的多低了733F 09/06 17:48
ucieric: KMT真的爛到無藥可救734F 09/06 17:48
jcshie: 繼續阿 我看你國民黨這些廢物跟低智支持者還有多久能活735F 09/06 17:48
naushtogo: 這女的歷史跟三民主義有學好嗎?736F 09/06 17:48
ab2326764: KMT抱著這些東西滾回中國 贊成!!!737F 09/06 17:49
Vedfolnir: 喔?下定決心要把中國相關的東西從台灣切割出去啦?738F 09/06 17:49
squallhung: 笑話黨739F 09/06 17:49
minipc: 果然不知問題點就是在於黨國不分740F 09/06 17:49
Vedfolnir: 那貴黨及黨羽們什麼時候要排隊投海自盡啊?741F 09/06 17:49
god4785: 把中國搞丟了,還敢這樣說唷742F 09/06 17:49
ponypeepee: 看到國民黨這樣就安心了743F 09/06 17:49
fifi0828: 所以KMT要滾了嗎 都寄生台灣70年了 你們丟掉的領土 自744F 09/06 17:49
kruzin: 我贊成把故宮寶物跟國民黨一起打包送回祖國745F 09/06 17:49
fifi0828: 己去找回來啊746F 09/06 17:49
gaddafi: 一個低級政權統治著高級人民 就跟共產黨統治香港人一樣747F 09/06 17:50
winnie28: 可憐748F 09/06 17:50
gaddafi: 那將是一場天大的災難749F 09/06 17:50
fifi0828: 榮民都快死光了 你們的大陸 還剩誰要反攻750F 09/06 17:50
hoohjoe: 黨國不分最佳典範751F 09/06 17:50
NOREG0101282: 國軍你們帶來的,但他們的薪水跟榮民的退休金是國752F 09/06 17:50
NOREG0101282: 民黨你們付的嗎?!
skylers0317: 可悲政黨內戰失利盜據台灣還敢講這種冠冕堂皇的話754F 09/06 17:50
Newyorkson: 這才是真正的KMT755F 09/06 17:51
ndtoseooqd: 還在黨國不分756F 09/06 17:51
victoryexiar: 明天就說台灣也是國民黨的757F 09/06 17:51
pilen185: 泱泱讚758F 09/06 17:52
well0103: 可以啊,你國民黨來之後拿走的土地跟產業全歸還給台灣人759F 09/06 17:52
well0103: 民
didihouse: 狗黨正常發揮761F 09/06 17:52
Newschool: 國民黨正常發揮762F 09/06 17:52
covenant: 國民黨當在野的能力比八卦鄉民還差,笑死763F 09/06 17:52
bowwo: 那你們帶著故宮的東西回中國啊,還台灣清淨764F 09/06 17:53
ShutODown: 連監督都不會的垃圾765F 09/06 17:53
jason4571: 笑死766F 09/06 17:53
lovexu3xu4: 還有人說邏輯正確笑死,不過如果把故宮文物給國民黨換767F 09/06 17:53
aa874125: 乾脆所有文物還國民黨 叫他們自己找地方收藏 他們知道這768F 09/06 17:53
ringlili: 我竟無言以對769F 09/06 17:53
murrayntou: 台灣土地人民借給kmt做反共基地,至今還跳票,違約賠770F 09/06 17:53
lovexu3xu4: 取所有國民黨員滾回中國,那挺划算的。畢竟不是每個國771F 09/06 17:53
iamgp: 我是覺得想要就拿去,然後滾出台灣772F 09/06 17:53
aa874125: 些文物每年要保護要花多少嗎?773F 09/06 17:53
jamison33: 中華民國也竊據台灣啊774F 09/06 17:53
lovexu3xu4: 家都收大型污染垃圾775F 09/06 17:53
murrayntou: 錢外加租金776F 09/06 17:53
Ohiyo543: 都2020了還在說這種黨國不分的白癡話,還想要東山再起?777F 09/06 17:53
gaddafi: 不要侮辱八卦鄉民(駐板支八毛 五毛 中二毛除外)778F 09/06 17:54
yangdemi: 覺得合理耶……分的清清楚楚的話779F 09/06 17:54
jesiuty: 96%菸蟑是腦死了是不是 還是小粉紅反串整天叫人滾他們是780F 09/06 17:54
sharring: 哈哈哈哈哈哈~~厲害的黨781F 09/06 17:54
wsxwsx0426: 豹紋id在這篇突然瘋狂護航耶 真神奇782F 09/06 17:54
controlgod: 黨庫通國庫783F 09/06 17:54
ms07b3: 中華民國把那些寶物賠償台灣也賠不完784F 09/06 17:54
jesiuty: 沒身分證嗎?喜歡對岸我看菸蟑嘴巴含屎先滾 整天散播共產785F 09/06 17:54
bejay1022: 你各位還不磕頭謝恩786F 09/06 17:54
votewithfoot: 不愧是被我認證的低能兒787F 09/06 17:54
jesiuty: 鬥爭思想跟智障沒兩樣788F 09/06 17:54
jojomaan: 智障789F 09/06 17:54
drugwitch: KMT真的快滾,笑死人790F 09/06 17:54
coolmark01: 我不喜歡車輪黨,不過她說得沒錯,分一分清楚一點791F 09/06 17:54
zd231: 國民黨的寶 簡稱國寶792F 09/06 17:55
wucrhow: 可憐的在野 難怪綠共亂搞都贏793F 09/06 17:55
ae2622: 智障kmt794F 09/06 17:55
lovexu3xu4: 綠蟑螂也別得意,等轉型正義成功後,你們這些蛀蟲就小795F 09/06 17:55
lovexu3xu4: 心點,因為躲在綠色下面就沒人發現你們是智障?只不過
andy89202033: 故宮算他們的?那整黨活在台灣不用付租金膩797F 09/06 17:55
wtfconk: 黨代表:泱泱798F 09/06 17:55
lovexu3xu4: 現階段跟4%還有滯台支那賤畜比起來比較不智障而已。799F 09/06 17:55
peter105096: 國的東西就是我黨的 懂?800F 09/06 17:55
jesiuty: 有種叫你祖罵親口叫人滾別叫一群狗在這耍低能 弱智化年輕801F 09/06 17:55
jesiuty: 人
Lumix7: 有夠好笑的 哈哈哈 真可憐803F 09/06 17:56
sharring: 那國民黨躲中共追殺,借住台灣那麼多年,要不要付租金804F 09/06 17:56
ZhaiMan: 黨國不分的時期 吸人民的血 啃人民的肉 要不要賠償啊?805F 09/06 17:56
secretmen: 國民黨幹走中國寶物=台灣國寶 蠻合理的806F 09/06 17:56
fifi0828: 逃難的落水狗 幫你保管文物就很好了807F 09/06 17:57
provider17: 有這種對手,民進黨要怎麼輸?808F 09/06 17:57
chiguang: 這個是誰?809F 09/06 17:57
thjyrsj: 民眾黨為什麼會贏不過這種黨,真的扯810F 09/06 17:57
au6vmp5846: 說的有道理耶 國民黨消失的話就沒有這些問題了 讚811F 09/06 17:57
gaddafi: 駐板支那賤畜還是洗洗睡 等著kmt一起被掃進歷史的垃圾堆812F 09/06 17:57
jasonae86: KMT又要再一次被共產黨擊敗了嗎><813F 09/06 17:57
cs02045782: 有夠不要臉814F 09/06 17:57
fifi0828: 有種就帶著你的榮民反攻你們的大陸啊 這樣北京故宮就不815F 09/06 17:58
gglong: 黨國不分啊…816F 09/06 17:58
Waitaha: 快阿 快去搬阿817F 09/06 17:58
fifi0828: 用放那些爛貨了啊818F 09/06 17:58
gaddafi: TMD檳榔價值黨竟然連這個垃圾車輪黨都贏不了+1819F 09/06 17:58
Blazeleo819: 供三小820F 09/06 17:58
mepe1018: 那就快回你們對岸的國度吧821F 09/06 17:58
hipmyhop: 還錢啊幹 一堆乞丐幹你娘錢全部吐出來拉操822F 09/06 17:58
m21423: 1450又在玩雙標823F 09/06 17:58
atashinchi: 那你先把故宮的地買下來824F 09/06 17:58
[圖]
abaddon: 故宮的寶物是屬於全體台灣人的,你國民黨想都別想碰,真826F 09/06 17:59
abaddon: 垃圾黨
Blazeleo819: 那國軍也國民黨起家的要不要歸國民黨所有?828F 09/06 17:59
furano: 馬的要是收入歸kmt,就不去故宮了829F 09/06 17:59
KUSUHA0707: 難怪民進黨躺著贏 這種發言還一堆人高潮830F 09/06 17:59
ARUSHI: 當初是[中華民國政府]還是[國民黨]帶來的?831F 09/06 17:59
sank: 支持KMT軍閥化直接武裝革命832F 09/06 17:59
cosmicray: 幹這什麼智障觀念,整個黨國不分然後這還是台灣第二大833F 09/06 17:59
wario2014: 嘻嘻,如果以前早點讓台灣獨立就可以這樣作,現在再講834F 09/06 17:59
cosmicray: 黨???台灣果然進步空間還很大835F 09/06 17:59
abaddon: 國民黨殺多少萬台灣人要不要算一算啊836F 09/06 17:59
wario2014: 這些根本就是痴心妄想,想給你死啦,嘻嘻837F 09/06 18:00
fifi0828: 軍隊組成幾乎都台灣人了 夾在838F 09/06 18:00
jesiuty: 的確是低能國民黨坐船一起過來的 菸蟑瑙袋裝屎 他要就還839F 09/06 18:00
ARUSHI: 黨國不分到意識不清了840F 09/06 18:00
yubirch: 哈哈哈哈哈哈哈哈哈841F 09/06 18:00
jesiuty: 他 在那帶風向 有比低能兒高尚嗎?842F 09/06 18:00
Gargila0135: SB843F 09/06 18:00
fifi0828: 台灣才是我們的家 你們中國人的家自己去找844F 09/06 18:00
t1996122: 綠共崩潰845F 09/06 18:00
wjchao: 國庫通黨庫的思維想不到還存在846F 09/06 18:00
shareme: 台灣國  的國寶是???847F 09/06 18:00
ndtoseooqd: 不愧是舔共黨848F 09/06 18:00
gaddafi: 這個垃圾車輪黨還能有551萬票 那草包還能有這麼多人支持849F 09/06 18:01
jimling2001: 果然是把整個中國丟掉的廢物黨850F 09/06 18:01
theclgy2001: 國民黨這樣我就安心了851F 09/06 18:01
iAsshole:852F 09/06 18:01
schumi7401: 搶國寶 讓自己好野853F 09/06 18:01
hank11431: 白癡854F 09/06 18:01
scotttomlee: 說得好,蔣遺體每年維護費也一起領回去855F 09/06 18:01
LunLin9590: 蛤 這些國寶的主人應該要算古中國各個朝代吧 KMT秀下856F 09/06 18:01
s00126: 中國黨還在黨國不分 可撥857F 09/06 18:01
LunLin9590: 限 蒸蚌858F 09/06 18:01
may88011: 好啦國民黨跟故宮一起還給中國859F 09/06 18:02
scotttomlee: 看要出錢還是領走遺體860F 09/06 18:02
B08092005: 好喔,那當初跟著你們來的難民退休金也麻煩了861F 09/06 18:02
voyhanxu: 想說我婆泱泱啥時跟車輪黨扯上邊了?!862F 09/06 18:02
jesiuty: 菸蟑再起整天喊四趴罷板 我看有錢才是任性 有多低端才要863F 09/06 18:02
jesiuty: 賺這種錢?
kuaiphoto: 其實我認為故宮文物應該還回去對岸,本來就不屬於台灣865F 09/06 18:02
kuaiphoto: 的
jackie36952: 這就是自嗨吧…867F 09/06 18:03
LII1201: 看到你們這樣正常發揮,我就放心了868F 09/06 18:03
JH10: 某些人都說是“國寶”了,怎麼還會說是KMT的= =?869F 09/06 18:03
skywingyang: 支持你們帶走啊  但你們KMT從台灣強取豪奪的錢財人命870F 09/06 18:04
skywingyang: 一併算一算
f7i69: 取暖大會?872F 09/06 18:04
phix: 還不如給中國873F 09/06 18:04
gaddafi: 黨和國本來就是兩個概念874F 09/06 18:04
squeakywheel: 實話實說 綠粉崩潰了?875F 09/06 18:04
AlvaroMorata: 這黨真的沒救惹876F 09/06 18:04
fudick: 舊時代的垃圾,該消滅了877F 09/06 18:05
annie06045: 綠共蟑螂愛罵中華民國又要拿文物 綠共的國家是中華民878F 09/06 18:05
annie06045: 國嗎? 是台灣獨立建國好嗎!
Doomsayer: 某j崩潰哈哈哈,滾一邊去吧。880F 09/06 18:05
cura4404: 國民黨先遷回中國領土,一切好談881F 09/06 18:05
bbalabababa: 出來說話的都是這種咖,882F 09/06 18:06
blus1986: 國民黨秀下限,只會繼續輸,反正清算kmt只是開始883F 09/06 18:06
bbalabababa: 國民黨越來越像宗教反智組織了884F 09/06 18:06
gaddafi: 難不成要免費送你們中國黨嗎?天下哪有這麼便宜的事885F 09/06 18:06
tokyoto: 就說你黨國不分還不承認 難怪黨產會要抄你們的家886F 09/06 18:06
Ray34Allen: 泱什麼泱 泱泱我老婆啦887F 09/06 18:06
aa22456222: 國民黨就是腦袋不清楚,中華民國不等於國民黨,所以888F 09/06 18:07
aa22456222: 故宮的東西當然歸中華民國不歸國民黨
farnorth: 柯黑綠共就是這麼雙標,只想要國民黨的財產890F 09/06 18:07
Doomsayer: 好久沒來八卦,怎變成這樣子,一堆五毛拿柯粉當頭銜,891F 09/06 18:07
grass930: 是可以啦,但是帳沒有那麼好算欸892F 09/06 18:07
Doomsayer: 說一些奇形怪狀的話。893F 09/06 18:07
topchris: 窩嗚窩嗚野一野一894F 09/06 18:07
saltlake: 學學民進黨在野的樣子 <- 不好意思,組織示威遊行895F 09/06 18:08
farnorth: 反正柯黑也反中,何必呢留中國國寶896F 09/06 18:08
saltlake: 是一門專業活動,人數越多越困難。貴黨一堆公子哥兒和897F 09/06 18:08
saltlake: 千金大小姐們懂得怎麼操作嗎?
aa22456222: 了若真要這樣說,請國民黨通通打包回中國吧899F 09/06 18:09
siaojin: 當初是國民黨抗戰的,民進黨出了什麼力氣,要是沒有現在900F 09/06 18:09
siaojin: 的國民黨,現在台灣早就是共產黨治國,也輪不到今天的民
siaojin: 進黨,誰說國民黨要滾出台灣的,沒有國民黨,今天哪有那
siaojin: 麼囂張的民進黨,一樓的那位,你在講什麼X話....
nicejelly: 推文有人說本來就國民黨的ww好喔支持啊,那他媽台澎要904F 09/06 18:09
nicejelly: 結束託管還美國沒
exhausty: 中華民國也是國民黨帶來的,應歸還906F 09/06 18:09
markmark09: 可憐吶907F 09/06 18:09
bnb89225: 台灣國支持者真的很不要臉,想吞人家中國國寶908F 09/06 18:09
wsxwsx0426: 一堆自稱柯粉的id怎麽突然都在這篇悲憤跳針啊909F 09/06 18:10
gaddafi: 沒有國民黨打輸逃贏來臺灣 臺灣早就獨立建國了910F 09/06 18:10
cuiudshaos: 還想說DDP在崩了KMT可以反擊 看來真的沒救了911F 09/06 18:10
h311013: 有道理 你們跟故宮遺物一起回中國吧912F 09/06 18:10
fifi0828: 台灣不需要中國國民黨 沒有台灣 你們早就被共產黨殲滅913F 09/06 18:10
fifi0828: 了
gaddafi: 歷史怎麼念的 別說出來丟人了915F 09/06 18:10
jay1233560: 腦子很重要希望大家都有916F 09/06 18:10
polong1: 國民黨這樣做就對了917F 09/06 18:11
jack34031: 要不要看醫生918F 09/06 18:11
pono: 包袱款款欸回去中國算了919F 09/06 18:11
rosydark: 綠共學不來的920F 09/06 18:11
gaddafi: 沒有臺灣讓你們中國難民黨逃早就全部1個不留被殲滅在中國921F 09/06 18:11
tonyhu: 沒救了922F 09/06 18:11
s8018572: 那帶著故宮文物滾回中國啊 幹923F 09/06 18:11
nicejelly: 還有人還敢提當初國民黨抗戰勒,當初抗戰烈士要是看到924F 09/06 18:11
pride014: 野三小    野炮比較快啦925F 09/06 18:11
skipclass: 所以當初228白色恐怖也是國民黨帶來的,是否也要再清算926F 09/06 18:11
nicejelly: 現在國民黨這德性,我看棺材板都壓不住927F 09/06 18:11
skipclass: 一次928F 09/06 18:11
gaddafi: 還在那邊搬弄是非黑白 倒果為因 真是笑死人了929F 09/06 18:12
siaojin: 現在的817請記得,台灣這塊土地,是國民黨抗戰過來的,沒930F 09/06 18:12
siaojin: 有國民黨,就不會有現在的你們這些817.....
nosaj0106: 其實有點道理...932F 09/06 18:12
cpcpao: 跟支那一樣,把黨當成國,把國當成黨933F 09/06 18:12
griswold: 多學學民進黨如何操作議題吧934F 09/06 18:12
jeffwei66: 同理中央銀行黃金也是KMT的,全民繳稅給KMT不為過。935F 09/06 18:12
fifi0828: 台灣是太平洋戰區 不是你中國戰區 你們是打敗仗逃來台936F 09/06 18:12
fifi0828: 灣避難的
Maiar: 我快笑死 爛到連柯韓粉最愛唬爛的兩黨一樣爛 都唬不出口了938F 09/06 18:13
zardmih: 台灣是靠美國軍事保護跟經濟政策才有今天 KMTer還真以為939F 09/06 18:13
reason825 
reason825: 這種文在八卦被推爆,我以為是新浪微博咧940F 09/06 18:13
seavon: 哈哈哈哈哈哈941F 09/06 18:13
zardmih: 自己很厲害?942F 09/06 18:13
fifi0828: 日本也是被美國打敗 不是被你們中國打敗943F 09/06 18:13
leo911344: 理論上來說那是中華民國國寶 的確跟台灣沒關係944F 09/06 18:14
lusheep: 哇,她在工三洨945F 09/06 18:14
gaddafi: 倒果為因 下膝下井 莫此為甚946F 09/06 18:14
v9300087: 標準的黨國不分 還是下去洗洗睡吧947F 09/06 18:14
sasolala: 泱泱~948F 09/06 18:15
SX70: 繼續發揮949F 09/06 18:15
OGC218: 泱泱我老婆950F 09/06 18:15
ppdogininder: 是國民黨帶還是中華民國固有的?951F 09/06 18:15
siaojin: 你們這些817要不要去看你家祖先牌位從哪裡來,再來這裡嘴952F 09/06 18:15
siaojin: ...
e023340: 國民黨還是中華民國帶來的?講清楚喔954F 09/06 18:16
cfetan: 一個黨員的發言是代表整個黨?是黨的主張?若不是,一個黨員955F 09/06 18:16
cfetan: 的失言,有什麼有辯護?有什麼好討論?
s8018572: 抗戰過來的?? 臺灣就是一塊土地在那邊 還kmt贏來的?957F 09/06 18:16
s8018572: 要是kmt沒贏 臺灣還是在民主的日本或美國啦 幹
Maiar: 都2020了 KMT還停留在1949的黨國思維 完全扶不起來的爛泥cc959F 09/06 18:16
leo255112: 故宮國寶是中華民國的,所以現在貴黨是中華人民共和國960F 09/06 18:16
Homedoni: 你先把故宮買下來或是自己蓋一個故宮吧,東西要放哪裡?961F 09/06 18:16
leo255112: 派來的?962F 09/06 18:16
nicejelly: 嘴不過人就開始提祖先www真有中國風格963F 09/06 18:16
riyan: 泱泱 我愛妳964F 09/06 18:16
bc007004: 遇到這種話題CenaC就會裝死裝很大呢965F 09/06 18:16
yuaso: 可以 那些東西包括整個國民黨 全部打包回中國 一個都不要留966F 09/06 18:17
shine465: DPPer:kmt正常發揮我就放心了967F 09/06 18:17
Homedoni: 那要不要順便連清朝欠各國的債都一起繼承?968F 09/06 18:17
tending: 乾脆全部砸爛969F 09/06 18:17
s8018572: 我祖先也不是kmt帶過來的啊 是在供三小970F 09/06 18:17
tkn0108: 不會先清算那些靠黨國不分累積財富的人嗎?971F 09/06 18:17
johfaikid: 贊成哦!快出來抗議972F 09/06 18:17
a1000359: 泱泱我的973F 09/06 18:17
zardmih: KMTer是不是忘了抗戰期間台灣人的國籍是日本啦974F 09/06 18:17
arue: 呃 他們是在加速自己的滅亡嗎?975F 09/06 18:17
cfetan: 一個黨員失言,可以比毒豬開放,國家隊出包還重要?976F 09/06 18:17
annie06045: 綠共請跟國民黨一起滾回中國 把台灣還給原住民!977F 09/06 18:17
risedance: 這很提油救火,果然執政太久就會變這樣。978F 09/06 18:17
jiasel: 對啦 台灣的地也不是台灣的啦979F 09/06 18:18
goodgodgd: 三 小 這 種 話 你 好 意 思 說 ? 郵局經手的包裹信件980F 09/06 18:18
goodgodgd: 都算郵局的財產?
yuaso:  一個黨員失言? 啊不是全場喊聲呼應982F 09/06 18:18
Murloc: 整個黨都這種思維難怪被唾棄983F 09/06 18:18
kakasi987: 呵呵984F 09/06 18:18
risedance: 綠久了也會這樣的,平衡兩黨政治還是有它必要。985F 09/06 18:18
HOLAHOJIAN: 黨國不分最佳體現986F 09/06 18:18
yun420179: 呵呵呵呵 果然黨國不分987F 09/06 18:19
superob: 泱泱大胸988F 09/06 18:19
dog990999: kmt真的不缺智障989F 09/06 18:19
uco330: 這樣故宮的維護費要KMT出嗎... 維護費應該比門票貴喔 @@"990F 09/06 18:19
kipi91718: 原來搬家工人辦完東西之後就自動變主人了 可以991F 09/06 18:20
cfetan: 一個黨員失言,既然不能代表整個黨,有討論的必要?但是毒992F 09/06 18:20
Doukyusei: 國民黨搶劫搶習慣了,現在終於栽跟頭了吧~想要回去不993F 09/06 18:20
cfetan: 豬進口開放可是執政黨整個黨的方向,不是嗎?994F 09/06 18:20
flybirdy: 難怪連中共都知道要靠阿北 國民黨沒救了吧995F 09/06 18:22
SSkey: 有這種人在KMT裡我就放心了996F 09/06 18:22
elite31307: 三個字 憑什麼997F 09/06 18:22
GodEyes: 好啊,整個黨拿著故宮文物一起滾回去中國,不要再跟台澎998F 09/06 18:22
GodEyes: 糾纏
Maiar: 要平衡兩黨政治 那是台灣人自己的事 中國黨帶著寶物滾好嗎?1000F 09/06 18:22
dog990999: 毒豬?那你kmt開放臺灣吃毒牛囉1001F 09/06 18:22
dog990999: 臺灣吃8年毒牛 kmt有何居心
A380: 那是國家的 不是中國國民黨的1003F 09/06 18:23
albert801020: 真聰明1004F 09/06 18:24
Nerv: 泱泱是大奶,不是大黨1005F 09/06 18:24
Xliao: 讚喔 大家怎麼都沒想到 就你最聰明了1006F 09/06 18:24
iuo: 母湯自助餐啊 維護費 場地費 人力 都由國民黨支出好不好1007F 09/06 18:25
icexfox: 泱泱我老婆1008F 09/06 18:25
IOUIOUIOU: 泱泱:叫我幹嘛?1009F 09/06 18:25
dic1911: 幹你娘機掰閉嘴低能兒1010F 09/06 18:25
BLUEPAPER: OK啊 那KMT把白色恐怖時期所做的醜事都交代清楚 以及1011F 09/06 18:25
BLUEPAPER: 被侵佔的被害者資產全吐出來 馬的
Rainning4545: 等一下,所以民進黨現在是把門票收入進了民進黨庫嗎1013F 09/06 18:26
solarsystem9: KMT慢走不送~1014F 09/06 18:26
Iphago38: 野起來AAAAAA1015F 09/06 18:26
Rainning4545: ?沒有的話這邏輯真的是講出來給人笑欸1016F 09/06 18:26
cfetan: 一個黨員失言,也僅是個人的主張,在言論自由下,每個人有1017F 09/06 18:26
iuo: 還有保險費 冷氣濕度控制電費 都出1018F 09/06 18:26
mipaup6: 笑死 真的黨國不分1019F 09/06 18:26
cfetan: 獨立主張,及價值觀,旁人自難干涉,既然不是黨的主張,更1020F 09/06 18:26
Wildsheep: 國民黨不是台灣的,帶上你們的拉基滾回去啊?1021F 09/06 18:26
bfacsls: 蠻合理的啊,現在民進黨是巴著別人的寶物不放嗎?吃相真1022F 09/06 18:26
cfetan: 不是黨主席發言,單挑出個人意見來撻伐,是否有試圖擴張至1023F 09/06 18:26
bfacsls: 的難看,這種據寶為王的心態跟共產土匪真的沒有兩樣。1024F 09/06 18:26
cfetan: 整個政黨,若有,本身即已存在不正當,不正義,不是嗎?1025F 09/06 18:27
toty1101: 因為有黨產所以是泱泱大黨1026F 09/06 18:27
davidjay300: 好像有道理1027F 09/06 18:27
fifi0828: 不要閉嘴啊 多講一點才好 叫台灣人全部都去複習KMT逃難1028F 09/06 18:27
zolon57: 好啊 帶著你的垃圾滾回中國 把當初搶奪的土地全都吐回來1029F 09/06 18:27
jialin6666: 泱泱大1030F 09/06 18:27
fifi0828: 史 逃難達人變成台灣救星 逃難美化成轉進1031F 09/06 18:27
misthide: 看到KMT這個樣子我就安心了1032F 09/06 18:27
openlion: 那些垃圾收回去啊 不是很想看欸1033F 09/06 18:27
bery: 柯韓粉努力護航中1034F 09/06 18:27
siaojin: 故宮的東西,本來就是國民黨帶過來的,有錯嗎?民進黨幫1035F 09/06 18:27
b9211028: 幹 不是啊 這樣解釋 還是黨國不分呀1036F 09/06 18:27
fifi0828: 中國人最會的 就是顛倒是非1037F 09/06 18:27
siaojin: 忙打仗了?1038F 09/06 18:27
AaronWang: 沒有國民黨逃離當時誰會救台灣?1039F 09/06 18:28
ccjg4673: 垃圾黨1040F 09/06 18:28
milton1991: 越想越不對勁1041F 09/06 18:28
GivemeApen: 全台灣都你的好不好1042F 09/06 18:28
wulaw5566: 有道理1043F 09/06 18:28
rken30791: 驗完智商再出來發言很難1044F 09/06 18:29
AbcPig: 總比硬塞美國豬給窮人吃的好1045F 09/06 18:29
artwu: 腦子壞了嗎?國寶的國是國家的國 不是國民黨的國1046F 09/06 18:29
aaaRengar: 他又在工三小1047F 09/06 18:29
nalthax: 故宮用國家資源當黨產啊?1048F 09/06 18:29
aa182201: 把國民黨送去給中共大家說好不好1049F 09/06 18:29
aaaRengar: 就是有這種人1050F 09/06 18:29
cfetan: 賭爛過去的主張,一般人也只是把其歸類在某黨的支持者或黨1051F 09/06 18:30
cruelgentle 
cruelgentle: 中國黨滾回中國去1052F 09/06 18:30
aaaRengar: 所以民進黨怎麼擺西瓜都贏1053F 09/06 18:30
s595857: ....1054F 09/06 18:30
cfetan: 員?會將其主張等同於某黨的基本主張?1055F 09/06 18:30
simpson083: 國民黨這樣子 看來穩了1056F 09/06 18:30
shinshy: 真的下去吧,國民黨老人根本負債1057F 09/06 18:30
cfetan: 國民黨有發出此主張?1058F 09/06 18:30
weido666: 白癡 那戰爭也是你們帶來的 請國民黨自己去打中共1059F 09/06 18:31
flowersuger: 人民的啦!誰帶來變誰的?是多智障?吃穿還不是靠人1060F 09/06 18:31
flowersuger: 民?
tainanpeter: 好啊 順便把自己帶回去中國1062F 09/06 18:31
seanlee0131: 可悲KMT1063F 09/06 18:31
dai3345678: 好 你快去要1064F 09/06 18:32
a123444556: 還給你們可以啊 你們國民黨全部人拿到故宮的東西之後1065F 09/06 18:32
stcr3011: 我要笑死1066F 09/06 18:32
m4su6747: KMT沒救了,還在黨國不分,整個黨沒正常人嗎1067F 09/06 18:32
R3210: 真的智障1068F 09/06 18:32
oziris: 拿去還中共比較合理吧1069F 09/06 18:32
a123444556: 通通註銷中華民國的身分證滾出台灣1070F 09/06 18:32
yocmjc: 黨產就是這樣來的1071F 09/06 18:33
iijima: 坐實國庫通黨庫1072F 09/06 18:33
pttchis: KMT素質不意外 黨等於國1073F 09/06 18:33
smallplug: 原來國寶的國是國民黨的國啊1074F 09/06 18:33
dinn: 一群垃圾1075F 09/06 18:33
yusanhu: 每個國家剛建立都有主要的人,資進黨就是要把建立者換成d1076F 09/06 18:34
photoshark: 黨國不分就是不當黨產的來源啊,國民黨跟不上民主,滾1077F 09/06 18:34
cfetan: 國民黨有發出此主張?若無,將主張灌入國民黨,照此邏輯,1078F 09/06 18:34
photoshark: 回去好嗎1079F 09/06 18:34
yusanhu: pp,一堆白癡看不懂,手法跟中共如出一轍1080F 09/06 18:34
ray10133: 那把國民黨還給中共好了 大家說好不好1081F 09/06 18:34
cfetan: 賭爛主張貪污可接受,某黨也依然認同此主張?1082F 09/06 18:34
new68k: 笑死國民黨也不是台灣的啊1083F 09/06 18:34
usamigj: 可憐垃圾黨1084F 09/06 18:34
philip1111: 這黨智障也太多1085F 09/06 18:34
nat50601tw: 國民黨沒救了1086F 09/06 18:34
billleo0406: 果然熟悉的kmt最對味 繼續低能下去不知道什麼時候滅1087F 09/06 18:34
yanis: 好喔 繼續正常發揮1088F 09/06 18:34
billleo0406: 黨1089F 09/06 18:34
Imagine15 
Imagine15: 可憐國瑜黨1090F 09/06 18:35
dante45678: 台灣海峽不加蓋1091F 09/06 18:35
Imagine15 
Imagine15:  https://i.imgur.com/CC0qsKX.jpg1092F 09/06 18:35
jdklas: 泱泱兇1093F 09/06 18:36
FinallyPeace: 這時候台派又要扒著中華民國不放囉 好噁心1094F 09/06 18:36
EROD: 照這邏輯,中國大陸原本也是國民黨的,請問貴黨何時會去要回1095F 09/06 18:36
longsre: 國民黨有種帶著故宮文物滾出台灣,笑你不敢,喪家犬1096F 09/06 18:36
EROD: 來?1097F 09/06 18:36
iuanz: 2020了黨國還是不會分,不查你黨產是要查誰?1098F 09/06 18:36
sunsam: 終於知道民進黨為啥無法無天 國民黨爛的谷底1099F 09/06 18:36
sunnywing: 場地跟維護費先掏出來1100F 09/06 18:37
CCMg: 泱泱表示:...1101F 09/06 18:37
ru8ru8: 說的蠻有道理的花兒,但是綠共是不要臉天下無敵1102F 09/06 18:37
zixo6318: 沒國民黨沒故宮?那好啊現在帶著那些東西滾回中國,當年1103F 09/06 18:38
photoshark: 共妳娘,不認同民主請去中國1104F 09/06 18:38
st89702: 台灣會輸韓國就是因為有kmt1105F 09/06 18:38
zixo6318: 白色恐怖拿走的人命順便還一還1106F 09/06 18:38
g3sg1: 真的不想再執政了是吧1107F 09/06 18:38
pokyhoyo: 中國文物歸還也是歸還給國際認證的中國繼承人中共 國民1108F 09/06 18:39
NCTUEE800808: 跟蔣中正講的一樣 一群飯桶 O.o1109F 09/06 18:39
pokyhoyo: 黨一起游過去跟中共收錢啊1110F 09/06 18:39
jamison33: 台灣也收容中國國民黨啊1111F 09/06 18:39
gilson1974: 仍然黨國不分1112F 09/06 18:39
downya: 這個黨,果然一堆人才1113F 09/06 18:39
NotOtaku: 當年殺了多少人,迫害多少黨外人士,殺人償命啊!1114F 09/06 18:39
bison520: 支那狗野起來給我們看看啊1115F 09/06 18:39
globe1022: 執政黨做得跟垃圾一樣,當在野依然蠢,洗洗睡啦垃圾黨1116F 09/06 18:40
wizozc495711: 連同KMT及國寶一起還給中國1117F 09/06 18:40
fanix21: 那對岸會抽成喔,難怪會在野1118F 09/06 18:40
heds: 很好啊 帶著你們的國寶快回家1119F 09/06 18:40
a410006108: Kmt滾出台灣啦 屁話一堆1120F 09/06 18:40
cfetan: 黨員失言,要嘛道歉,要嘛懲處,不是嗎?1121F 09/06 18:40
BeckettLai: 北京故宮的順便XD1122F 09/06 18:40
obeytherules: 這樣吧 把國民黨趕回中國 故宮寶物歸你們1123F 09/06 18:40
alkahest: 先把幾十年來的保養費用還出來阿幹1124F 09/06 18:40
kw003266: 我實在看不懂 這種鬼話在八卦還有推文在哪裡推支持還有1125F 09/06 18:41
kw003266: 人說該國家補助這政黨 原本以為是反串點進去查根本不是
kw003266: 如果這樣之前用稅金的建館跟維護 運送 維持費用是不是該
CelicaGT: 連同那些不屬台灣的東西一起滾回中國1128F 09/06 18:41
doggy0705: 利用台灣賺了這麼多錢,真好意思講1129F 09/06 18:41
kw003266: 先還給人民1130F 09/06 18:41
alkahest: 蠻有道理個屁 既然屬於黨為何拿國家經費收藏跟維護?1131F 09/06 18:41
abadjoke: 爛到我還以為是反串 但其實是真的爛1132F 09/06 18:41
Maiar: 好啊 有道理就拿出來大家評一評 KMT快點出來抗爭 據理力爭!1133F 09/06 18:42
matthew60707: 學不乖 被滅黨剛好而已1134F 09/06 18:42
Maiar: 野一野給大家看啊 這麼有理 人民都會支持的 ddp死定了 快點1135F 09/06 18:42
Linezolid: 有時候都懷疑這些人是不是民進黨的臥底1136F 09/06 18:42
tarmogo: 看到KMT如此,真讓人放心1137F 09/06 18:42
xavier971060: KMT還有參雜中國,但綠共才是完全MIT的笑話1138F 09/06 18:42
kramer: 難民滾回大陸好不好1139F 09/06 18:42
ColaLing: 好耶 之前七十年恆溫恆濕保管費也給你們出1140F 09/06 18:42
ariot: 滾回中國 那些可以送你們上路1141F 09/06 18:43
jerrychiu: 原來如此1142F 09/06 18:43
sharepart: 推,蠻有道理的1143F 09/06 18:43
timx85927: 全世界都是國民黨的1144F 09/06 18:43
kklighter: 真的不缺豬隊友,開再多會也只會開會,這腦袋啊1145F 09/06 18:43
hank791221: 快去1146F 09/06 18:43
x23602360: 好歐1147F 09/06 18:43
thehospital: 真的,這邏輯還需要不當黨產條例嗎?我給87分1148F 09/06 18:43
allsame: 故宮東西包一包跟國民黨一起送回中國去1149F 09/06 18:44
js52666: 剛好不當黨產處理你們XD1150F 09/06 18:44
goodzoro: 國庫通黨庫的概念?藍紅一家親1151F 09/06 18:44
lici0393: 支持國民黨去佔領故宮1152F 09/06 18:44
jk01: 國庫通黨庫1153F 09/06 18:44
stapia: 笑死1154F 09/06 18:44
cfetan: 一個黨員失言,掩蓋掉整個全代會的光芒1155F 09/06 18:45
pokyhoyo: 賣中國國寶附贈國民黨 看中共要出多少1156F 09/06 18:45
JonLo: 這什麼智障發言,故宮裡的文物是歸國家所有還是你國民黨?1157F 09/06 18:45
flyaway19zzz: 整天幻想國家資源是屬黨的 國家是屬於全體人民好嗎1158F 09/06 18:46
tochenmmy: 泱泱是我的==1159F 09/06 18:46
jcshie: kmt全代會有光芒喔?哈哈哈哈哈1160F 09/06 18:46
Irelia56: 這想法很共哦,黨=國。1161F 09/06 18:46
Segal: 土匪不演啦,笑死1162F 09/06 18:46
chong17: 國黨帶著故宮滾出台灣吧1163F 09/06 18:46
jcshie: 讓我們繼續自慰九二沒共識的光芒嗎1164F 09/06 18:46
kaede0711: 請你們把故宮東西拿過去順便滾去中國1165F 09/06 18:47
arrival0125: 這種人...1166F 09/06 18:47
sugimoto0607: 國民黨...衷心真的希望能打一點1167F 09/06 18:47
peggy91522: 他們要門票錢就要花錢保養 順便把建造費出ㄧ出1168F 09/06 18:47
james5566: 垃圾支那黨 都2020年還再黨國不分啊 怎麼不說自己固有1169F 09/06 18:47
jcshie: 欸欸欸 對欸 真的要算 那直接還給支那不是更精準 連kmt一1170F 09/06 18:47
james5566: 領土支那的年歲收歸KMT所有1171F 09/06 18:47
brenda0740: 全場鼓掌喔?看這個黨這樣我就放心了1172F 09/06 18:47
jcshie: 起打包帶走 不要忘了先付這些年的維護費用喔1173F 09/06 18:47
matsui725: KMT跟故宮一起送中是可以考慮的1174F 09/06 18:47
FadOut: 有道理1175F 09/06 18:47
Plot3D: 滾回支那1176F 09/06 18:48
mamamia0419: 文物屬國家的而不是黨的吧1177F 09/06 18:48
DANANPA: KMT都是這種咖小,所以不能怪別人酸"不然要投KMT嗎?"1178F 09/06 18:48
hayeschen: 國民黨還停留在黨國時代?1179F 09/06 18:49
hondoga03: 好野,全家都野起來~1180F 09/06 18:49
cfetan: 鄉愿,就等著沉淪1181F 09/06 18:49
yu800910: KMT不意外 還是下去吧1182F 09/06 18:49
GOLDENANDGRE: 87要給也是給你們口中的中華民國1183F 09/06 18:50
hiyashi1986: 黨國思想,跟共產黨如出一轍1184F 09/06 18:50
dcdrkim: 滾出去,故宮不要也罷1185F 09/06 18:50
RoaringWolf: KMT有自己舉球給人打了1186F 09/06 18:50
flatfish2717: 國寶變黨寶 自己黨國不分1187F 09/06 18:50
zenoho: 好一個黨國體制啊!都2020還有1960的思維..果然是支那國民1188F 09/06 18:50
zenoho: 黨
edward811230: 國民黨也不是台灣的啊是不是也要滾出去1190F 09/06 18:51
flatfish2717: 那怎麼不先跟中共要回中國??智障1191F 09/06 18:51
prstar: 是喔!1192F 09/06 18:51
ks2384im: 印證黨庫通國庫1193F 09/06 18:51
yozvi: 看到kmt還是這個樣子我就放心了1194F 09/06 18:51
david7112123: 讚啦! 繼續沉淪 水啦!1195F 09/06 18:51
fifi0828: 想要算帳可以啊 殺死一個台灣人算多少?1196F 09/06 18:51
kaede0711: 故宮給你們啊 榮民你們自己養1197F 09/06 18:51
landpro: 為什麼都是這種咖1198F 09/06 18:51
devil115789: 照他們的說法這些都是中國幹來的是不是要還回去?1199F 09/06 18:51
YJJ: 一堆寶物變成私人手裡的還沒清算吧1200F 09/06 18:52
Fuuin: 這發言活像是內奸ww1201F 09/06 18:52
sbshiu: 維護與保存會花更多錢吧,除非把文物都拍賣掉1202F 09/06 18:52
caryamdtom: 那當初建設跟一直以來維持的費用記得付喔,還有辦活動1203F 09/06 18:52
caryamdtom: 只要跟這些國寶有關係也要出活動費
yuiweq1999: 變成黨寶嗎 那軍人也是你們帶來的你們也養好了...1205F 09/06 18:53
jknight1224: 國民黨有這些愚蠢的傢伙看來是爬不起來了1206F 09/06 18:53
lici0393: 陳麗旭,就是當初說韓總殺人放火也要投他的那個人1207F 09/06 18:53
Asucks: 黨國一體的封建思想,難怪輸到不見底1208F 09/06 18:54
protect6090 
protect6090: 國民黨 狗娘養 柯韓屁眼睪智商XDDDDDDDDDDD1209F 09/06 18:54
fcz973: 趕快野一下快點1210F 09/06 18:54
gvmoonfan: ...?!!1211F 09/06 18:54
Neve5566: 包包款款欸連人都送回中國也沒差1212F 09/06 18:55
stevenkuo: 沒有美國幫忙,光頭逃的掉嗎1213F 09/06 18:55
coutji3184: 有道理啊 中華民國黨國不分1214F 09/06 18:55
Yuiwa1996: 是「中華國民政府」帶過來的,屬於國家(全體人民)的黃1215F 09/06 18:55
Yuiwa1996: 金和故宮文物,不是你「國民黨」帶過來的。
aprilwater: 笑豹1217F 09/06 18:55
Yuiwa1996: 這種黨國不分的白癡言論也有一群低能兒在哪裡附和『合1218F 09/06 18:55
Yuiwa1996: 理』,笑死XD
cliff880528: 有道理 不過故宮建築物的錢跟幾十年來的稅金維護費1220F 09/06 18:56
dbdudsorj: 很好 看的國民黨這麼正常發揮 我就放心了1221F 09/06 18:56
Tiffanyheart: 有道理阿 但是拿了很丟人阿1222F 09/06 18:56
jmangeL44: 可憐哪1223F 09/06 18:56
jcshie: 一堆低能兒就是搞不懂黨國不分就是這個論調1224F 09/06 18:56
rickcoo: 這樣垃圾國民黨請繼續保持1225F 09/06 18:57
cliff880528: 麻煩先結一下1226F 09/06 18:57
IdleLife: 中肯推 最好政府每個月要額外付版權費給KMT1227F 09/06 18:57
Faicha: 黨國不分最佳範例1228F 09/06 18:57
sinonpower: 果然是一群智障1229F 09/06 18:57
jcshie: 照這邏輯可以啊 一切費用支出都還來先 你以為那些東西放1230F 09/06 18:57
fifi0828: 趕快好好野一下啊 最好一直野到20241231F 09/06 18:57
jcshie: 在那邊就自己生錢喔?1232F 09/06 18:58
kangta0819: 現在是要開始搞破壞了嗎1233F 09/06 18:58
akwa: 難怪垃圾綠共可以爽成這樣1234F 09/06 18:58
iljie: 泱泱是我的1235F 09/06 18:58
fifi0828: 趕快野起來 我還嫌你不夠野1236F 09/06 18:59
gameguy: 溥儀遇到強盜,GG1237F 09/06 18:59
grandwar: 黨國不分 可憐吶1238F 09/06 18:59
yamikiri: 好像有道理,不過真的黨國不分(以前XD)1239F 09/06 18:59
satheni: 難怪會想統一,活在過去的政黨1240F 09/06 19:00
raphin: 快點解散吧1241F 09/06 19:00
domo9999: 被DPP掐住脖子還不敢反抗確實是笑話1242F 09/06 19:00
lird: 在野連抗議都不會了,看著爐渣米好棒棒,在野笑話1243F 09/06 19:00
EricTao: DPPer突然支持中華民國了  欸嘿1244F 09/06 19:00
tkwei123: 原來是國民黨的   不是台灣的1245F 09/06 19:01
Rhapsody: 本來躺著選都能上,kmt最不缺豬隊友1246F 09/06 19:01
reexamor: 泱泱我婆!我婆!1247F 09/06 19:01
RLH: 有夠北七1248F 09/06 19:02
carto: 如果你們堅持三民主義統一中國,應該會有很多支持者,去觀1249F 09/06 19:02
am3kfnm3: 真不愧是支那黨的思維1250F 09/06 19:02
carto: 摩眼球中央電視台吧1251F 09/06 19:02
jaster205: 看國民黨這樣我就安心了,下一屆總統還是沒國民黨的份1252F 09/06 19:03
kenpitaten: KMT還會說這種話  那我就放心了1253F 09/06 19:03
deadogy: 國家的東西說成是黨的,不愧是國民黨1254F 09/06 19:03
jkreg: 野去中國,別死賴在台灣,一群垃圾1255F 09/06 19:04
novashine: 連在野黨都當的哩哩啦啦 滾回中國吧1256F 09/06 19:04
hansioux: 原來故宮文物不是國家的是國民黨的,這種黨國不分的心態1257F 09/06 19:04
kingdomsss: 狗黨這腦子 難怪輸慘1258F 09/06 19:04
hansioux: 好復古1259F 09/06 19:05
bart102617: 那台灣要跟國民黨收避難費嗎? 不然你們要逃去哪?1260F 09/06 19:05
abc06292002: 笑死1261F 09/06 19:05
Argyris: 乾脆把國民黨都送回中國,這樣更省錢1262F 09/06 19:05
loking: 哈哈 真的沒救了1263F 09/06 19:06
Speeddemon: 國民黨這樣我就放心了1264F 09/06 19:06
Sam0453: 黨國思維不意外1265F 09/06 19:07
hansioux: 中國國民黨也不是台灣的,請滾出去1266F 09/06 19:07
aaron68032: 好讚的發言 難怪活該被滅1267F 09/06 19:07
lovejamwu: 這是什麼白癡...說到底這也是對岸那邊的東西1268F 09/06 19:07
idleventus: 故宮:????1269F 09/06 19:08
li924iy: 南故宮送你1270F 09/06 19:09
LEEdan: 蠻有道理的1271F 09/06 19:09
cfetan: 衷心國民黨能多點戰將,少一點豬隊友1272F 09/06 19:10
victorialee: 搶來的東西也好在那邊說,乾脆故宮連同國民黨一起還1273F 09/06 19:10
victorialee: 給中國好了拜拜
wcj5566: 黨即國的思想表露無疑1275F 09/06 19:10
eunice1110xp: 的確是國民黨拿來的沒錯吧1276F 09/06 19:10
wate5566: 看KMT的智商還是一樣低 我就放心了1277F 09/06 19:10
WarIII: 標準黨國不分1278F 09/06 19:10
lorena409: 你國民黨願意滾回中國就還你們1279F 09/06 19:11
wcj5566: 想撒野滾回北京撒野去吧1280F 09/06 19:11
cfetan: 對豬隊友的處置恐也要明快1281F 09/06 19:11
Royalweger: 要還也是還給中國吧1282F 09/06 19:11
andbu558: 天天被中共掐住脖子 真是泱泱大黨1283F 09/06 19:11
a78720505: 當初那些難民的開銷怎麼算?1284F 09/06 19:12
Chrysan0924: 學別黨貪污籌備建國基金不會喔,傻傻的1285F 09/06 19:12
lisasa: 當初強佔多少資源要不要一起還1286F 09/06 19:12
Royalweger: 講直白點要還也是還中共1287F 09/06 19:12
kklighter: 國民黨是不是要往後100年都無法執政,準備烙塞烙一輩子1288F 09/06 19:13
kklighter: 了
sttp: 還好吧不然要還大陸跟明進洞?1290F 09/06 19:13
uni19ball: 有道理1291F 09/06 19:14
sid3: 說的好  明天到故宮售票亭上班1292F 09/06 19:14
prayer513: 黨國不分 怎麼聽起來就是共產黨?1293F 09/06 19:15
ryan12266705: 看到泱泱才點進來的==1294F 09/06 19:15
wetor: 好,直接返還阿陸,跟國民黨一起1295F 09/06 19:15
kuenlin: 黨國不分...1296F 09/06 19:15
percy69: 噗,那要不要請萬安把阿嬤帶去美國的先還他們1297F 09/06 19:15
sid3: 不只台灣故宮  連北京故宮也是國民黨的  快去搶1298F 09/06 19:16
slat: 繼續黨國不分啊1299F 09/06 19:16
muffinpat: 沒救成這樣1300F 09/06 19:16
carrie376: 一群黨國不分的白痴1301F 09/06 19:17
a12788547: 中華民國稅收都應該歸國民黨所有 不爽獨立阿 笑你們不1302F 09/06 19:17
a12788547: 敢
Elvis0617: 乾你娘,跟土匪一樣,黨國不分欸,民主國家居然出現這1304F 09/06 19:17
Elvis0617: 種政黨!
sid3: 中國14億人的稅收本來也是國民黨的  站起來要回來1306F 09/06 19:17
Amanz: 我綠還不吵一下228,轉移焦點1307F 09/06 19:17
YoGlolz: 他們又在公三小  奇怪我怎麼又說又了呢1308F 09/06 19:18
joinptt: 可憐,有這種黨代表,全台收入都歸KMT好不好?1309F 09/06 19:18
alex9926: 全世界最大的笑話(筆記1310F 09/06 19:18
TheRock0987: 故宮歸國民黨,終生不去看故宮1311F 09/06 19:18
badc98: 建議國民黨打包滾出台灣1312F 09/06 19:18
MattOwl: 邏輯不通1313F 09/06 19:18
tamynumber1: 呵,有槍可以撿的時候在撿這種爛議題,難怪越來越扶1314F 09/06 19:19
Silvemy: 確定他不是臥底?1315F 09/06 19:19
canallchen: 國民黨都不反共了。明明就是共產黨台灣國民小支部。1316F 09/06 19:19
StoneMan: 大砲都撿不動 國民黨你們是真的爛1317F 09/06 19:20
chengmei: 還活在幻想中的黨 可黏阿1318F 09/06 19:20
Elvis0617: 難怪當初戰敗,被共產黨趕出中國,根本土匪、強盜,不1319F 09/06 19:20
Elvis0617: 得民心...
yuiscarlet: 國民黨代表都這種咖 難怪好不起來1321F 09/06 19:20
oceanman: 國民黨歸中國好了1322F 09/06 19:20
no10: 我以為那些文物屬於國家的。1323F 09/06 19:21
metallolly: 每當我覺得民進黨不行了 國民黨可以更爛..= =1324F 09/06 19:21
TheRock0987: 故宮門票費歸國民黨,永遠不會去故宮1325F 09/06 19:21
Zack5813: 唉……真是沒救了  這個黨1326F 09/06 19:22
sazabik: 請問國民黨,台灣人養妳們多久了?1327F 09/06 19:22
markkao456: 那你們過去A的誠實來折抵,文物請拿去,記得不能隨便1328F 09/06 19:23
ricklin: 到底 下限在哪裡呀??1329F 09/06 19:23
markkao456: 破壞弄丟哦啾咪1330F 09/06 19:23
zzzzzzzzzzzy: 說真的,故宮寶物還真的是國民黨帶來的1331F 09/06 19:24
[圖]
rifinah: 國民黨都這副德性1333F 09/06 19:24
sharring: 國共黨,滾回大陸去,不送1334F 09/06 19:24
w3951: 黨國不分 還以為活在戰前呢1335F 09/06 19:25
Dong3366: 要不要一起回大陸啊?1336F 09/06 19:25
twpisces: 行啦 要拿你就拿走 以後別再給我機機歪歪的就好1337F 09/06 19:26
ww1234528: 支持故宮跟中華民國一起滾回金馬1338F 09/06 19:26
pumacu: 國民黨真的弱,撿到槍都不會開,被巴假的1339F 09/06 19:26
SupCat: 低能1340F 09/06 19:26
jj782995: 黨國不分,唯一做法:消滅國民黨就解決了1341F 09/06 19:27
yori5566: 就已經沒人了剩下的還一直扯後腿,國民黨真的沒救了1342F 09/06 19:27
yori5566: 加油好嗎?在野太弱真的不是好事
Gian: 這些人腦子有沒有問題阿1344F 09/06 19:28
tracyyu: 腦袋有洞黨...1345F 09/06 19:29
pig5938: 不要臉的髒東西,拜託狗冥黨的包袱款款回你們的祖國好嗎1346F 09/06 19:29
pig5938: ?
IiiiIiIIiiM: 國民党是中國的該還回去了吧1348F 09/06 19:29
k23: 北七1349F 09/06 19:29
lanjack: 國家的財產www,不是一直在講黨國不分,所以要清黨產?現1350F 09/06 19:30
felix1017: 哈哈哈哈1351F 09/06 19:30
lanjack: 在又變成當初帶古蹟文物來台的不是國民黨政府而是中華民1352F 09/06 19:30
pchome321: 奇怪 知識藍消失了嗎1353F 09/06 19:30
lanjack: 國政府了是吧www1354F 09/06 19:30
cisopig: 一個黨怎麼可以這麼站在人民的對立面?真的是1355F 09/06 19:30
a00049g: 國民黨盡出奇葩1356F 09/06 19:30
denal: 真正的國庫通黨庫1357F 09/06 19:31
TravelFar: 真真黨國不分,台灣如果獨立就還你www1358F 09/06 19:31
pchome321: 沒救了  哪一個拉一把吧1359F 09/06 19:32
wilson31507: 合理1360F 09/06 19:32
arsz: 整個黨就是笑話1361F 09/06 19:32
duelaylomo: 那是國家的不是黨的,要還也是還給中國1362F 09/06 19:32
arx3721: 那你跟台灣人搶的四萬換一元匯率先還來啊幹1363F 09/06 19:33
zoo0602: 帶著你們中國的文物滾回去中國!台灣不稀罕操1364F 09/06 19:33
DarkFantasia: 收啊,不過現在故宮的設備和人材都是國家的你們不1365F 09/06 19:33
zoo0602: 你媽的支那人!1366F 09/06 19:33
DarkFantasia: 能拿走,記得每年多花一大筆錢給文物保養專家和文1367F 09/06 19:33
DarkFantasia: 物維持設備喔,畢竟是寶物不能隨便對待的:)
phix: 真的是土匪1369F 09/06 19:34
webberhan: 871370F 09/06 19:34
e04linmom: 泱泱我老婆啦幹1371F 09/06 19:34
Mesa5566: 國民黨要回復皇權了啊 皇上誰當?1372F 09/06 19:34
kensy9295: KMT也中國人帶來的 484也該還給中國1373F 09/06 19:35
OoJudyoO: 中華民國也還你 然後賠償台灣人各種費用1374F 09/06 19:35
fifi0828: 因為我們是台灣人 而他們是中國黨 站在台灣對立面有很1375F 09/06 19:35
fifi0828: 奇怪嗎?
yiwangneko: ???1377F 09/06 19:35
OoJudyoO: 屠殺台灣人 搶奪財產 長期戒嚴的賠償費1378F 09/06 19:35
OoJudyoO: 來啊來啊國民黨 來算帳啊
YAUN: 養一堆智障,難怪國民黨衰敗1380F 09/06 19:36
OoJudyoO: 台灣的保管費 跟你國民黨來收啊 試試看1381F 09/06 19:36
cfetan: 怎麼沒見到國民黨出來更正,怎像恐龍般遲緩?1382F 09/06 19:36
OoJudyoO: 真的以為自己是貴族啊 中國拉基1383F 09/06 19:36
secscy: 這個真的很廢耶1384F 09/06 19:36
MilkTeaMan: 支持中國國民黨跟中國贓物一起歸還中國1385F 09/06 19:36
OoJudyoO: 屠殺台灣菁英的賠償費啦 給我付出來1386F 09/06 19:36
AGUSTA: 中華民國的東西關台灣什麼事?1387F 09/06 19:36
OoJudyoO: 整黨包一包回中國啦 不送1388F 09/06 19:37
OoJudyoO: 還以為台灣人稀罕喔 中國人吃屎
heyraccoon: 哈哈哈哈笑死掉本日最好笑1390F 09/06 19:38
victoy0909: 收費分紅要也是給真正需要幫助的老榮民1391F 09/06 19:38
gonna01: 可以都還給中國不要緊1392F 09/06 19:38
inshimmer: 可以啊 滾去金門馬祖 台灣收故宮文物和國民黨這垃圾幹1393F 09/06 19:38
inshimmer: 嘛
newIheart: 笑死1395F 09/06 19:39
benian: 中國國民黨把文物帶回去投共我可以喔1396F 09/06 19:39
OoJudyoO: 還有台灣人投這種黨 超級賤的1397F 09/06 19:39
ching7478: 泱泱大黨是誰?我只知道泱泱1398F 09/06 19:39
dorodoro: 國家文物,再怎樣退也是屬於"中華民國"的,絕對不會是國1399F 09/06 19:39
dorodoro: 民黨的好嗎?這些人的腦袋到底是...都不會想說好好做事
OoJudyoO: 故宮裡很多是日本人給的 不是國民黨1401F 09/06 19:39
Currahee52: 好啊 最好東西收一收滾回中國啊 國民黨也是中國的 賴1402F 09/06 19:39
dorodoro: 、表現給人民看來奪得選票之類的嗎?老是想這堆有的沒的1403F 09/06 19:39
Currahee52: 在台灣是在?1404F 09/06 19:40
iamtan: 果然是黨》國的思想,跟對岸一模一樣XDD1405F 09/06 19:40
visviva: 變民進黨的,民進黨越來越富有惹1406F 09/06 19:40
Osirsir: 完全正名國庫通黨庫1407F 09/06 19:41
funnyrain: 黨國不分 顆顆1408F 09/06 19:41
wzas50047: 本來想講點什麼但還是算了.jpg1409F 09/06 19:42
CityHunter17: 一堆五毛噁心幫藍共發言1410F 09/06 19:43
xkiller1900 
xkiller1900: 哇,真有道理XDDDDDDDD1411F 09/06 19:43
zaqimon: 國共內戰國民黨帶來的 自己去解決1412F 09/06 19:43
tapatch: 同意,管理並收門票費,但不得變賣或贈與1413F 09/06 19:43
seou: 你帶去鄰居家的東西算是誰的1414F 09/06 19:44
a6444long: kmr去死!1415F 09/06 19:44
LiaoooSave1: 那國民黨有出一毛錢賠償過台灣人嗎?1416F 09/06 19:45
hinajian: 就是個比較失勢的共產黨1417F 09/06 19:45
RAPPIRANGAI: 先把228跟白色恐怖受難者的生命還回來啊1418F 09/06 19:46
southes: 狗黨沒救1419F 09/06 19:46
wsx26997785: 還你國民黨阿  整個黨及難民請滾出台灣  操你的1420F 09/06 19:46
asole: 這樣想就對了1421F 09/06 19:46
szk: Kmt可以放心的繼續爛下去了1422F 09/06 19:46
DF801580: 黨國不分真的是沒救1423F 09/06 19:47
wsx26997785: 還有戒嚴台灣39年、挪用台灣資產  請一一賠償出來1424F 09/06 19:47
puro: 國民黨要獨立了是不是1425F 09/06 19:48
MermaidFA: 全民納稅錢維護故宮多少年了?國民黨先吐出來啊有夠不1426F 09/06 19:48
astroflyer: tmd不就是因為帶來的黃金造成貨幣貶值嗎1427F 09/06 19:48
MermaidFA: 要臉1428F 09/06 19:48
jejeje: KMT再次成功嚇退我了1429F 09/06 19:48
tongue1986: 國民黨解散加入新黨和統促黨好了1430F 09/06 19:48
yoyo2008yoyo: 殺小啊 那不是屬於國家的嗎1431F 09/06 19:49
royfw: 直接露出本性也太好笑www1432F 09/06 19:49
JingJing00: 這樣算民選總統以前打仗的錢國民黨都要付 欠債都要還1433F 09/06 19:49
tongue1986: 國民黨進來的時候佔了多少台灣人的土地房產不用還嗎1434F 09/06 19:50
TodaYui: 很可以 中國難民黨把從中國帶來的東西帶回去就別再來了1435F 09/06 19:51
ccolorLing: 這麼好的送分時間點上還坐球給DPP 有夠廢1436F 09/06 19:51
hopeweed00: 可憐哪,整個就是個笑話1437F 09/06 19:51
CO2: 小偷兼難民的中國黨好敢1438F 09/06 19:51
wsx26997785: 故宮、中華民國都帶著滾出台灣   包含帶蔣介石骨頭滾1439F 09/06 19:52
tongue1986: 還泱泱大黨央你的雞8毛1440F 09/06 19:52
CO2: 黨跟故宮都送回中國 當堂堂正正中國人吧1441F 09/06 19:53
Elvis0617: 可不可以不要把治理中國那套搬來管理台灣人民啊!這樣1442F 09/06 19:53
Ruri2: 黨國不分最佳案例1443F 09/06 19:53
Elvis0617: 真的會一直輸!1444F 09/06 19:53
vividchi: 把國民黨跟故宮垃圾還給支那1445F 09/06 19:53
Yu: 不當黨產條例拿來用也是剛好1446F 09/06 19:53
zien0223: 國共兩黨果然骨子裡是一樣的汙穢1447F 09/06 19:53
ChampGrape: 好ㄛ 剛好還國號 中華民國沒用了1448F 09/06 19:54
wolve: 我愛泱泱1449F 09/06 19:54
fifi0828: 四萬換一元這筆先來算1450F 09/06 19:54
seedboxs: 太屌了這言論 所以國民黨可以滾出台灣嗎?1451F 09/06 19:54
dick01411: 黨國不分1452F 09/06 19:54
ray0910: 國寶收走,國民黨願意退出台灣嗎1453F 09/06 19:54
Elvis0617: 國民黨當初根本不想治理台灣,心繫著中國,結果現在黨1454F 09/06 19:55
Elvis0617: 內老人一樣,只是變成舔共
seaBottle21: 可憐哪1456F 09/06 19:55
lockchad: 中華民國跟憲法也是國民黨帶來的哪好吧,我們也不好意思1457F 09/06 19:56
mecca: 我的天啊  今年是2020年耶Zzzzzzzzzzzzzzzzzzzzzzzzzzzz1458F 09/06 19:56
ll1117: 拜託,國寶是中華民國帶過來的,只是剛好當時執政的是國1459F 09/06 19:56
cagigi: 台灣是當初你們光復的,是不是也要當作你們的黨產?1460F 09/06 19:56
lockchad: 佔用1461F 09/06 19:57
notea: 讚 國民黨這樣我就放心了1462F 09/06 19:57
ll1117: 民黨而已1463F 09/06 19:57
sumwind: 你國民黨選舉就這樣喊1464F 09/06 19:57
blue010679: 維護費用通通kmt付 相關人員薪水kmt付 故宮收租金kmt1465F 09/06 19:57
blue010679: 付
tongue1986: 要上街頭快點來啦讓大家看笑話吧1467F 09/06 19:58
stvn2567: 先去討回把國產和黨產轉入私人戶頭中飽私囊的大老吧1468F 09/06 19:58
Zenta: 都2020了還要被大家幹譙KMT黨國不分…1469F 09/06 19:58
lavign: 一碼歸一碼全部結清 國民黨打包回中國1470F 09/06 19:59
linhsiuwei: 她嗑了什麼東西講話這麼ㄎㄧㄤ1471F 09/06 19:59
DirkMavs: 說實在的 真的很多老人是這樣的思維1472F 09/06 19:59
HannibalLt: 打不贏日本 也打輸共產黨 到底在叫什麼1473F 09/06 19:59
MaBumblerQQ 
MaBumblerQQ: 外省豬仔可憐吶1474F 09/06 20:00
nonallowance: 有道理,應該先把國寶都放國民黨部,不然放故宮保管1475F 09/06 20:00
c24253994: 笑死 垃圾黨1476F 09/06 20:00
srena: 在中國鬥不過共產黨,在台灣也鬥不過民進黨,真的可憐1477F 09/06 20:00
nonallowance: 費太貴!1478F 09/06 20:00
wsx26997785: 幹不要臉  滯在台灣吃香喝辣  還要台灣交出文物1479F 09/06 20:00
tongue1986: 國民黨不倒台灣果然不會好1480F 09/06 20:00
kevin86tp: 故宮的東西不是屬於中華民國的嗎?黨國還不會分啊kmt1481F 09/06 20:00
protect6090 
protect6090: 國民黨 狗娘養 柯韓屁眼睪智商XDDDDDDDDD1482F 09/06 20:01
wsx26997785: 幹你娘  70年來跑來台灣吃香喝辣  現在還有臉討文物1483F 09/06 20:02
wsx26997785: 操你的 70年花用台灣人辛苦錢及占地  要不要還一還?
chinafree: 中華民國稅收也應該播給國民黨XD1485F 09/06 20:03
dnkofe: 糟糕,我快笑死了1486F 09/06 20:04
wsx26997785: 欠台灣的先還清就還你文物   然後整個黨滾出台澎1487F 09/06 20:04
mudee: 好啊  文物保管費用也國民黨支出  別用臺灣人的納稅錢1488F 09/06 20:04
wsx26997785: 不要臉  欠台灣都沒還  還要台灣還你東西  垃圾黨1489F 09/06 20:05
aioloslin: 繼續算下去很ok啊!只是結果很難說1490F 09/06 20:05
interact: 確實故宮文物是國民黨搶來的1491F 09/06 20:05
mudee: 軍人也徵滯台中國人  別拉臺灣人當兵  我們臺灣自己有自己1492F 09/06 20:06
mudee: 的軍隊  好不好啊?
gazelle74: 綠色共產黨真的是一群智障低能兒1494F 09/06 20:07
sparklekyu: 醫材美豬哪個不能打,執政被靠北連在野都不會?1495F 09/06 20:07
zzff92: 那你國民黨拿什麼台灣人的稅金 幹你娘1496F 09/06 20:07
mikazeray: 好喔,順便把你們都一起丟回中國那就沒問題!1497F 09/06 20:08
losage: 苟延殘喘在台灣的土地上有付錢嗎?這些都抵押品啦1498F 09/06 20:08
interact: 把故宮文物全數歸還KMT然後他們回歸中共我們正名福爾摩1499F 09/06 20:08
interact: 沙
mikazeray: 反正都是中國來的1501F 09/06 20:08
bcs: 可憐,搬國寶的被砍頭1502F 09/06 20:08
amaranth5566: 這才是我熟悉的中國黨1503F 09/06 20:08
mudee: 看到國民黨改不了的個性  還有智障中國人/華人相信臺灣有今1504F 09/06 20:09
madcloud: …1505F 09/06 20:09
toastegg: 到底野一野是什麼動詞 中國用語?1506F 09/06 20:09
mudee: 天這樣的發展  是因為國民黨帶了人才跟傢俬到臺灣? 事實證1507F 09/06 20:09
mudee: 明  還不是靠臺灣人努力  以國民黨那種腦袋  大概也變成軍
mudee: 政府而已啦  感謝台獨前輩努力  感謝李登輝先生奠定臺灣民
mudee: 主化的契機 臺灣才有今天
bananas: ...1511F 09/06 20:10
evelyn055: 她是不是臥底要整死KMT的阿?1512F 09/06 20:11
piba228: 那國民黨要不要付保管費1513F 09/06 20:11
mars1314: 嘴…1514F 09/06 20:11
qtzbbztq: 有這些人在 難怪民進黨躺著選1515F 09/06 20:12
qw12mo: 腦子被中出過吧?1516F 09/06 20:12
dank0506: 一堆邏輯錯亂黨國不分的智障,那是國寶還是黨寶阿?國只1517F 09/06 20:12
dank0506: 有一個,執政黨一直在換,不管誰執政,那都是屬於中華民
smalldata: 泱泱原來是大黨喔1519F 09/06 20:12
qtzbbztq: 真的被說中了 連在野黨都不會當1520F 09/06 20:12
simoncage: 民進黨不是反中,那就把故宮的文物都退回去給中共,讓1521F 09/06 20:13
simoncage: 國民黨沒有相罵本。
blpapf: 厲害了 就是這樣黨國不分才會被凍結1523F 09/06 20:13
mattie: 我聽了什麼1524F 09/06 20:13
jupei: 智障嗎1525F 09/06 20:13
qtzbbztq: 每次民進黨只要犯了錯 國民黨就要耍白爛 然後焦點又回到1526F 09/06 20:14
warluck: XD 這個黨1527F 09/06 20:14
qtzbbztq: 國民黨 真的是民進黨救星阿1528F 09/06 20:14
jupei: 幹你媽把吃台灣人的錢吐出來啊1529F 09/06 20:14
mudee: 國民黨絕對不是臥底  他們的腦袋就是那樣  跟中國人同種的1530F 09/06 20:14
mudee:  哈哈哈
ChampGrape: 叫連戰郝柏村吐出來啊1532F 09/06 20:15
Orz9106: 綠畜怎麼捨得kmt倒 專業救援1533F 09/06 20:15
atiantis03: 聽起來就只考慮黨的錢..難怪都不甩國民國民1534F 09/06 20:16
SecondRun: 白癡 難怪民進黨敢亂搞1535F 09/06 20:17
globeglobe: 怎麼不說你國民政府來台灣,沒付門票呢?1536F 09/06 20:18
ZAXUS: 可以帶著東西滾出台灣的話 我沒意見1537F 09/06 20:18
gazelle74: 國民黨一碰到共產黨就跟智障一樣,全世界把共產主義發1538F 09/06 20:19
guest3year: 又再黨國不分了1539F 09/06 20:19
noonmoon: 這種發言...真不愧是KMT的1540F 09/06 20:19
gazelle74: 揮到最極致的邪教就是綠色共產黨,比中國共產黨還有可1541F 09/06 20:19
gazelle74: 怕,消滅共產黨這群畜牲是身為人都應該做的事
superpandal: 做事本來就要考慮後手  你們還不夠了解他們1543F 09/06 20:20
cutehale: 搶糧搶地搶女人1544F 09/06 20:20
uf1276: 中國國民依然這麼爛1545F 09/06 20:22
berserkman: 原來是在吸仇恨啊1546F 09/06 20:22
a86710985: 國民黨還活在黨國時代阿1547F 09/06 20:22
gazelle74: 共產黨真的比國民黨還要厲害1548F 09/06 20:23
abc22753939: 什麼叫做黨國不分1549F 09/06 20:23
Shaqui11e: 是台灣的不是你國民黨的 讀點書好嗎?1550F 09/06 20:23
Gnau: 這真是太SMART惹1551F 09/06 20:23
vicdecx: KMT裡面是不是一堆間諜啊 還是本來就是這樣1552F 09/06 20:24
bluesee: 好啦,連故宮的東西一起包一包滾回中國,中共超想統一你1553F 09/06 20:25
bluesee: 們的
vick6339: 國民黨不倒 台灣不會好 這句不是喊假的1555F 09/06 20:26
HAYABUSA1207: 只有我覺得故宮的東西應該歸還中國嗎?1556F 09/06 20:26
YCC28: 國民黨真的是爛泥扶不上牆XD1557F 09/06 20:26
dodo577: 真的不能怪人民選擇讓民進黨一黨獨大...1558F 09/06 20:26
wentasu: 一黨獨大是中央地方全面壓倒。DPP在地方議會從沒壓倒勝,1559F 09/06 20:28
wentasu: 哪裡稱得上一黨獨大。
kkaic: 趕快滅黨吧 年輕人加油好嗎1561F 09/06 20:30
ferrisw: 二二八由國民黨賠款1562F 09/06 20:30
b0920075: 國民黨是不是還以為現在是以黨領政1563F 09/06 20:30
Nachts: 那國民黨是哪來的要不要滾回哪去?1564F 09/06 20:30
ccekw807: 外省房產記得全數歸還1565F 09/06 20:31
enthusiasm12: 可以啊 狗黨帶文物滾出台灣 但問題是哪裡還有你容身1566F 09/06 20:32
tikowm: 智障大會1567F 09/06 20:32
enthusiasm12: 之處ww1568F 09/06 20:32
somefatguy: 黨庫通國庫自己承認1569F 09/06 20:32
g9122xj: 這個腦子真的不錯,不要怪民進黨一黨獨大,不要腦子光吃1570F 09/06 20:33
ysbh: 綠糞邏輯:1571F 09/06 20:33
kiv9137: 黨庫就是國庫沒錯啊,你各位台灣人忘記自己的天職就是工1572F 09/06 20:33
g9122xj: 鐵票就好的第二大黨長這樣,有什麼辦法1573F 09/06 20:33
kiv9137: 作養中國人了嗎1574F 09/06 20:33
gospursgo21: 黨國不分還這麼大聲1575F 09/06 20:34
farnorth: 柯黑邏輯不會感謝國民黨帶國寶來1576F 09/06 20:34
fifi0828: KMT趕快離開台灣 你們比較適合中國1577F 09/06 20:34
ysbh: 綠糞邏輯:1578F 09/06 20:34
DaDaDaLa: 完全體現黨庫通國庫的垃圾思維1579F 09/06 20:34
fifi0828: 中國人民還等你們中國國民黨解救1580F 09/06 20:34
k70113: 我最愛看狗智障講綠糞邏輯了 XD1581F 09/06 20:35
mikasakai: 你們國民黨怎麼不全部回去首都1582F 09/06 20:35
UhByeBye: 阿不就黨國不分 國民黨代表智商都這個樣嗎1583F 09/06 20:36
hank99911: 難怪國民黨現在成這個樣1584F 09/06 20:36
ysbh: 綠糞邏輯:1585F 09/06 20:36
frankexs: 結果還是在講笑話,跟白癡一樣1586F 09/06 20:37
jazzprozac: 北七1587F 09/06 20:37
xxhsuval: 不知道要用什麼表情回應1588F 09/06 20:38
protect6090 
protect6090: 國民黨 狗娘養 柯韓屁眼睪智商XDDDDDDDDDD1589F 09/06 20:39
soto2080: KMT的國家齒輪根本忠實呈現1590F 09/06 20:39
HsiangFly: 一堆推文跟著K黨黨國不XD1591F 09/06 20:39
ysbh: 綠糞邏輯:1592F 09/06 20:39
Richael2001: 好哇,國寶還你們,然後帶著金、馬滾回支那1593F 09/06 20:39
luhulord: 真的啊 可以收一收滾出台灣了1594F 09/06 20:39
afrazhao: 哈哈哈是有多缺錢1595F 09/06 20:40
eateating95: 挖這個黨的邏輯是留在南京嗎?1596F 09/06 20:41
hot3965359: 都是這種貨色,啃1597F 09/06 20:42
chennylee809: 所以故宮文物到底是國寶還是黨寶?1598F 09/06 20:42
McDaniel: 故宮文物給狗冥黨收回去,終身不進故宮,不給狗冥黨賺1599F 09/06 20:43
sukinoneko: 黨機器動起來,這篇滿滿綠意1600F 09/06 20:44
CImbX: 國寶≠黨寶 但台獨那麼討厭中國他們肯定也不會要....吧?1601F 09/06 20:44
slimfat0202: 幹你媽的中國國民黨帶這這些國寶滾回去中國...1602F 09/06 20:45
gghost1002: 沒人民的血脂可吸 缺錢了齁1603F 09/06 20:46
z8903: 這樣的9.2讓人放心,請保持1604F 09/06 20:46
dtdon1699: 可以跟英國要阿1605F 09/06 20:47
a4302f: 國民黨存在就是笑話1606F 09/06 20:48
QB6996: 結果還是要錢而已嘛!1607F 09/06 20:48
girafa: 喔?哈1608F 09/06 20:48
gazelle74: 共產黨真的比鬼還要可怕1609F 09/06 20:49
rcat2010: 可憐連個正常思考的都沒了1610F 09/06 20:49
fish0730: 中國大陸也是國民黨被搶走,無限期支持國民黨收復河山,1611F 09/06 20:49
fish0730: 滾出台灣!

--
※ 看板: Gossiping 文章推薦值: -13 目前人氣: 0 累積人氣: 3651 
※ 推薦文章:
( ̄︶ ̄)b a0987789369 說讚! ( ̄︿ ̄)p AyawayTaiwan, JosephC0227, cc241357, tarbo888, marks56789, bentley9453, love1807, aa82238223, giads51, yhnmju, shinra0815, tetris2, fino1624, jack608, Minyi 共 15 個人 說瞎!
1樓 時間: 2020-09-06 16:51:06 (台灣)
  09-06 16:51 TW
?你把中華民國放在哪裡
2樓 時間: 2020-09-06 16:52:46 (台灣)
  09-06 16:52 TW
故宮博物院裡的國寶不是台灣的
中華民國不是台灣的
3樓 時間: 2020-09-06 16:53:04 (台灣)
  09-06 16:53 TW
連抗爭都不會,真的倒一倒比較快啦,廢物垃圾!
4樓 時間: 2020-09-06 16:53:10 (台灣)
  09-06 16:53 TW
能不能拜託國民黨先把當初我外公的那一堆4萬換1塊還來嗎?
5樓 時間: 2020-09-06 16:55:41 (台灣)
+3 09-06 16:55 TW
故宮文物是KMT從「中國」帶來的,不屬於台灣
那好吧,是台灣不對
看來台灣只好把 ROC、KMT、文物 這些本是中國的東西 全部還給左岸
屬於中國兩黨的恩怨情仇 請回中國處理 放過台灣 台灣可以正名獨立 金馬也能回中國懷抱了
(KMT真的知道自己在說什麼嗎~這一切下去會很好玩哦)
6樓 時間: 2020-09-06 16:55:49 (台灣)
  09-06 16:55 TW
哇~厲害了 你的黨…
本版死忠韓粉 鋼鐵藍軍 韓粉愛假柯粉的dispgogogo Tisp KL666 a11643 覺得光榮 理當如此…口喜 口喜
7樓 時間: 2020-09-06 16:58:32 (台灣)
  09-06 16:58 TW
台灣也不是國民黨的 滾!
8樓 時間: 2020-09-06 17:01:13 (台灣)
  09-06 17:01 TW
故宮的東西是大清國的,可不是國民黨的哦?
9樓 時間: 2020-09-06 17:01:16 (台灣)
  09-06 17:01 TW
那麼國共內戰你們也去打好嗎?台灣不甘你們的事。
10樓 時間: 2020-09-06 17:01:42 (台灣)
  09-06 17:01 TW
寶物和國號全部都還你國民黨,然後在由全國人民出錢,把你國民黨送回中國,我們台灣也不要你們國民黨!滾!
11樓 時間: 2020-09-06 17:01:57 (台灣)
  09-06 17:01 TW
滯台4%快回祖國懷抱XD
12樓 時間: 2020-09-06 17:03:44 (台灣)
+1 09-06 17:03 TW
這個我贊成,把故宮的東西都還他們;然後請國民黨員全部都滾回中國!
13樓 時間: 2020-09-06 17:08:07 (台灣)
  09-06 17:08 TW
回你祖國去
14樓 時間: 2020-09-06 17:08:28 (台灣)
  09-06 17:08 TW
看到國民黨這樣,我就放心了。
萬年廢物。
15樓 時間: 2020-09-06 17:12:33 (台灣)
+1    (編輯過) TW
你國民黨還一直靠北省籍情節、排斥外省人什麼的,今天還敢說這種話,是誰在搞分化?別笑死人了!你國民黨是希望台灣內亂是不是?
16樓 時間: 2020-09-06 17:11:21 (台灣)
  09-06 17:11 TW
是不是該把國民黨送還給中共了~
17樓 時間: 2020-09-06 17:17:34 (台灣)
  09-06 17:17 TW
收入都是自己的
支出費用都應該國家出
~~果然中國黨跟兩岸一家親黨 口味類似 ~寄生台灣那麼久了還好意思?
18樓 時間: 2020-09-06 17:19:20 (台灣)
  09-06 17:19 TW
這個黨是白痴嗎??
19樓 時間: 2020-09-06 17:23:45 (台灣)
  09-06 17:23 TW
送KMT回中國!
20樓 時間: 2020-09-06 17:33:00 (台灣)
+1 09-06 17:33 TW
那這些會是屬於滿州國殘餘貴族的嗎?..
如果照國民黨的說法 當初民國成立時.或快淪陷時發行的債券 現在國外人民.團體手上的國債.信債 要不要也去還一環??
21樓 時間: 2020-09-06 17:33:34 (台灣)
  09-06 17:33 TW
把狗黨送還支那吧!
22樓 時間: 2020-09-06 17:37:41 (台灣)
  09-06 17:37 TW
都國寶了還在國民黨帶來的.....是國家的還是黨的....
23樓 時間: 2020-09-06 17:45:35 (台灣)
+1 09-06 17:45 TW
國民黨中央委員陳麗旭於29日的造勢活動時高喊,「就算韓國瑜是黑道,也要挺到底!」,接著疾呼「他不只是黑道的而已,就算你跟我說他殺人放火,我跟你說我也是要投他,你跟我說他搶劫,我也是要投給他,就算騙我,我也是要投給他,對不對!」台下支持者則熱情地歡呼!
24樓 時間: 2020-09-06 17:54:12 (台灣)
  09-06 17:54 TW
殺人放火也照挺韓國瑜
https://www.youtube.com/watch?v=NjZ7vs3-pNk
25樓 時間: 2020-09-06 18:07:37 (台灣)
+2 09-06 18:07 TW
KMTer實質證明國產通黨產,現在還打算賣國給共產黨,怎麼不乾脆回去支國發展呢!
26樓 時間: 2020-09-06 18:38:28 (台灣)
  09-06 18:38 TW
國民黨滾回中國
27樓 時間: 2020-09-06 18:43:35 (台灣)
  09-06 18:43 TW
嫌不夠爛是嗎????
28樓 時間: 2020-09-06 18:57:23 (台灣)
  09-06 18:57 TW
吸台灣的血還不夠嗎? 台灣人何時覺醒呢?
29樓 時間: 2020-09-06 19:02:03 (台灣)
  09-06 19:02 TW
工三小?那國民黨現在可以滾出台灣了吧。
滾回你們的中國去啦,一堆垃圾。
30樓 時間: 2020-09-06 19:06:50 (台灣)
+1 09-06 19:06 TW
好不容易可以爆打民進黨,現在又開戰場自己挨打
31樓 時間: 2020-09-06 19:11:31 (台灣)
+1 09-06 19:11 TW
歐盟都獨立了  國民黨還整天想跟中國做連結
Europe Just Declared Independence From China - Bloomberg
[圖]
As the EU navigates an increasingly Sino-American world, it finally sees the need to stand together, even against Beijing. ...
32樓 時間: 2020-09-06 19:22:04 (台灣)
  09-06 19:22 TW
那KMT要給保管費呀!
33樓 時間: 2020-09-06 19:28:40 (台灣)
+1 09-06 19:28 TW
這搬運法真是高明
不如說台幣都是國民黨的
34樓 時間: 2020-09-06 19:54:33 (台灣)
  09-06 19:54 TW
直接說要修憲,把國民黨列為唯一合法政黨算了,反正一樣可以自稱是民主國家。
35樓 時間: 2020-09-06 19:56:14 (台灣)
  09-06 19:56 TW
翻譯:想辦法國庫通黨庫
36樓 時間: 2020-09-06 19:58:32 (台灣)
  09-06 19:58 TW
下一次是不是要宣布國民黨的執政縣市的稅收都收歸黨有?
37樓 時間: 2020-09-06 20:30:18 (台灣)
  09-06 20:30 TW
這種思維你能說什麼?你帶來的 花誰的錢管理的??你有交過管理費嗎??你有交過場地費嗎??
38樓 時間: 2020-09-06 20:30:56 (台灣)
+1 09-06 20:30 TW
人民的納稅錢幫你管寶物  你從來沒有感恩過一句
39樓 時間: 2020-09-06 20:34:54 (台灣)
  09-06 20:34 TW
我已經看到2024的結局了
40樓 時間: 2020-09-06 21:16:24 (澳門)
  09-06 21:16 MO
國民黨當年只是把東西"從非自由地區運過來台灣",從來都不曾屬於國民黨。何來私有化? 是在公開表示自己曾偷國家東西?
41樓 時間: 2020-09-06 21:16:28 (台灣)
  09-06 21:16 TW
kmt分食自己黨產的速度比光速還快,三中一下子就屍骨無存了,何況國寶
42樓 時間: 2020-09-06 21:17:19 (台灣)
  09-06 21:17 TW
kmt在大陸有宣佈這些國寶是自己的黨產嗎?打著國家名號現在說是他的??
43樓 時間: 2020-09-06 21:34:44 (台灣)
  09-06 21:34 TW
當初1949中國難民不要來台灣就好了
44樓 時間: 2020-09-06 21:47:15 (台灣)
  09-06 21:47 TW
為啥是五樓老婆泱泱?
45樓 時間: 2020-09-06 21:55:34 (台灣)
  09-06 21:55 TW
還在二戰黃金傳說歐?
當時的黃金後來還部分運回中國去當軍餉了,剩下的發給中國黨的各高官們沒幾年就花光了,中國黨怎麼不跟自己那些高官討?
後來台灣的黃金都是台灣人自己一點一滴賺出來的拉!
阿..還有美國爸爸的贊助。
[圖]
[圖]
46樓 時間: 2020-09-06 22:01:07 (台灣)
  09-06 22:01 TW
[圖]
電請朱世明與麥克阿瑟溝通「聞盟軍總部有意將臺灣移交盟國或轉由聯合國暫管…..臺灣可能成為中國反共之新政治希望,甚盼美國政府勿承認中共政權協助中國反共」
(蔣中正總統文物 數位典藏號: 002-060100-00253-020)
[圖]
美方知道蔣不肯離開則開始討論是否需要強制驅離中華民國政權 [Washington,] July 6, 1949.Draft Memorandum Prepared in Policy Planning Staff
1. Any plan for the removal of the present authorities on Formosa and the Pescadores immediately encounters two serious obstacles: (a) there are now approximately 300,000 Chinese troops on the islands, who might resist such action and (b) this Government is more or less committed to Chinese sovereignty over the islands.
任何計畫要移除現有福爾摩沙和澎湖統治當局,都會立即遭遇兩種可能的障礙:(a) 那裏有大約30萬中國大軍在島上,可能會抵抗這樣的行動
後續1950年韓戰爆發,美方被迫無奈下,只能暫時擱置問題,轉為金援逃來臺灣的國民黨勢力,在美援挹注下得以苟延殘喘,逐漸演變為今日的局面。 當然其中美方也很不爽,因為早在一開始評估金援台灣時,就已經知道多數的美元會被蔣家貪汙,但還是只能這麼做。
47樓 時間: 2020-09-06 22:08:54 (台灣)
  09-06 22:08 TW
國民黨只剩一群貪生怕死的膽小鬼。
48樓 時間: 2020-09-07 02:14:11 (台灣)
  09-07 02:14 TW
那先把連家家產抄一抄在來說
49樓 時間: 2020-09-07 02:23:11 (台灣)
  09-07 02:23 TW
我知道泱泱很大
50樓 時間: 2020-09-07 03:05:49 (台灣)
  09-07 03:05 TW
全部滾回中國去 別賴在台灣
載入剩下的9筆推文...
r)回覆 e)編輯 d)刪除 M)不收藏 ^x)轉錄 同主題: =)首篇 [)上篇 ])下篇